Observation data for Guadalupe Mtns Park on 11/13/2019      Previous  Date       Current Mesonet Observations  Soil Data  Daily Summary Page  Observations in Plain Language
KGU1 130600Z 21015KT 01/M06 A3017 RMK A01 T00091057  RH  061%=      5-min Rain = 0
KGU1 130601Z 21014KT 01/M06 A3017 RMK A01 T00101056  RH  062%=      5-min Rain = 0
KGU1 130602Z 21017G23KT 01/M06 A3017 RMK A01 T00101055  RH  062%=      5-min Rain = 0
KGU1 130603Z 21018KT 01/M06 A3017 RMK A01 T00101057  RH  061%=      5-min Rain = 0
KGU1 130604Z 21016G22KT 01/M06 A3017 RMK A01 T00101057  RH  061%=      5-min Rain = 0
KGU1 130605Z 22017KT 01/M06 A3017 RMK A01 T00111055  RH  061%=      5-min Rain = 0
KGU1 130606Z 21018KT 01/M06 A3017 RMK A01 T00111055  RH  061%=      5-min Rain = 0
KGU1 130607Z 21017KT 01/M06 A3017 RMK A01 T00111055  RH  061%=      5-min Rain = 0
KGU1 130608Z 21020KT 01/M05 A3017 RMK A01 T00121053  RH  062%=      5-min Rain = 0
KGU1 130609Z 21017KT 01/M05 A3017 RMK A01 T00131051  RH  062%=      5-min Rain = 0
KGU1 130610Z 21017KT 01/M05 A3017 RMK A01 T00131051  RH  062%=      5-min Rain = 0
KGU1 130611Z 21017KT 01/M05 A3017 RMK A01 T00121053  RH  062%=      5-min Rain = 0
KGU1 130612Z 21016KT 01/M05 A3017 RMK A01 T00111053  RH  062%=      5-min Rain = 0
KGU1 130613Z 21015KT 01/M05 A3017 RMK A01 T00111051  RH  063%=      5-min Rain = 0
KGU1 130614Z 21015KT 01/M05 A3016 RMK A01 T00141045  RH  065%=      5-min Rain = 0
KGU1 130615Z 21015KT 02/M04 A3016 RMK A01 T00161043  RH  065%=      5-min Rain = 0
KGU1 130616Z 21014KT 02/M04 A3016 RMK A01 T00171042  RH  065%=      5-min Rain = 0
KGU1 130617Z 21013KT 02/M04 A3016 RMK A01 T00181042  RH  065%=      5-min Rain = 0
KGU1 130618Z 21014KT 02/M04 A3016 RMK A01 T00181044  RH  064%=      5-min Rain = 0
KGU1 130619Z 22016KT 02/M05 A3016 RMK A01 T00161047  RH  063%=      5-min Rain = 0
KGU1 130620Z 21015KT 01/M05 A3016 RMK A01 T00141050  RH  062%=      5-min Rain = 0
KGU1 130621Z 21013KT 01/M05 A3016 RMK A01 T00141048  RH  064%=      5-min Rain = 0
KGU1 130622Z 21013KT 02/M04 A3016 RMK A01 T00151044  RH  065%=      5-min Rain = 0
KGU1 130623Z 21015KT 02/M04 A3016 RMK A01 T00161043  RH  065%=      5-min Rain = 0
KGU1 130624Z 21017KT 02/M04 A3016 RMK A01 T00171044  RH  064%=      5-min Rain = 0
KGU1 130625Z 21016KT 02/M05 A3016 RMK A01 T00151047  RH  063%=      5-min Rain = 0
KGU1 130626Z 21017KT 01/M05 A3016 RMK A01 T00141046  RH  064%=      5-min Rain = 0
KGU1 130627Z 21017KT 01/M05 A3016 RMK A01 T00131048  RH  064%=      5-min Rain = 0
KGU1 130628Z 21015KT 01/M05 A3016 RMK A01 T00121049  RH  064%=      5-min Rain = 0
KGU1 130629Z 21015KT 01/M05 A3016 RMK A01 T00111048  RH  065%=      5-min Rain = 0
KGU1 130630Z 21015KT 01/M05 A3016 RMK A01 T00121046  RH  066%=      5-min Rain = 0
KGU1 130631Z 22016KT 01/M05 A3016 RMK A01 T00121045  RH  066%=      5-min Rain = 0
KGU1 130632Z 21013KT 01/M04 A3016 RMK A01 T00131044  RH  066%=      5-min Rain = 0
KGU1 130633Z 22013G18KT 02/M04 A3016 RMK A01 T00151040  RH  068%=      5-min Rain = 0
KGU1 130634Z 22013KT 02/M04 A3016 RMK A01 T00151041  RH  067%=      5-min Rain = 0
KGU1 130635Z 21014KT 02/M04 A3016 RMK A01 T00161041  RH  066%=      5-min Rain = 0
KGU1 130636Z 21016KT 02/M04 A3016 RMK A01 T00151044  RH  065%=      5-min Rain = 0
KGU1 130637Z 22014KT 01/M05 A3016 RMK A01 T00131046  RH  065%=      5-min Rain = 0
KGU1 130638Z 21014KT 01/M04 A3016 RMK A01 T00141042  RH  067%=      5-min Rain = 0
KGU1 130639Z 22012KT 02/M04 A3016 RMK A01 T00161040  RH  067%=      5-min Rain = 0
KGU1 130640Z 22014KT 02/M04 A3016 RMK A01 T00181038  RH  067%=      5-min Rain = 0
KGU1 130641Z 22012KT 02/M04 A3016 RMK A01 T00171039  RH  066%=      5-min Rain = 0
KGU1 130642Z 22010KT 02/M03 A3016 RMK A01 T00211028  RH  070%=      5-min Rain = 0
KGU1 130643Z 24006KT 03/M02 A3016 RMK A01 T00261022  RH  071%=      5-min Rain = 0
KGU1 130644Z 26003KT 03/M02 A3016 RMK A01 T00301019  RH  071%=      5-min Rain = 0
KGU1 130645Z 25002KT 03/M02 A3016 RMK A01 T00311018  RH  071%=      5-min Rain = 0
KGU1 130646Z 26003KT 03/M02 A3016 RMK A01 T00331015  RH  071%=      5-min Rain = 0
KGU1 130647Z 28004KT 04/M01 A3016 RMK A01 T00361010  RH  073%=      5-min Rain = 0
KGU1 130648Z 26002KT 04/M01 A3016 RMK A01 T00381009  RH  072%=      5-min Rain = 0
KGU1 130649Z 23002KT 04/M01 A3016 RMK A01 T00401007  RH  072%=      5-min Rain = 0
KGU1 130650Z 23003KT 04/M01 A3016 RMK A01 T00401011  RH  070%=      5-min Rain = 0
KGU1 130651Z 22005KT 04/M01 A3016 RMK A01 T00401009  RH  071%=      5-min Rain = 0
KGU1 130652Z 20006KT 04/M01 A3016 RMK A01 T00401012  RH  070%=      5-min Rain = 0
KGU1 130653Z 21009KT 04/M02 A3016 RMK A01 T00381017  RH  068%=      5-min Rain = 0
KGU1 130654Z 22009G14KT 03/M03 A3016 RMK A01 T00341027  RH  065%=      5-min Rain = 0
KGU1 130655Z 23009KT 03/M02 A3016 RMK A01 T00321022  RH  068%=      5-min Rain = 0
KGU1 130656Z 23009KT 04/M01 A3016 RMK A01 T00381012  RH  071%=      5-min Rain = 0
KGU1 130657Z 23008KT 04/M01 A3016 RMK A01 T00421011  RH  069%=      5-min Rain = 0
KGU1 130658Z 26004KT 04/M01 A3016 RMK A01 T00411013  RH  068%=      5-min Rain = 0
KGU1 130659Z 27003KT 04/M01 A3015 RMK A01 T00411014  RH  068%=      5-min Rain = 0
KGU1 130700Z 28005KT 04/M01 A3015 RMK A01 T00411012  RH  069%=      5-min Rain = 0
KGU1 130701Z 29005KT 04/M01 A3015 RMK A01 T00401010  RH  070%=      5-min Rain = 0
KGU1 130702Z 32005KT 04/M01 A3015 RMK A01 T00411008  RH  071%=      5-min Rain = 0
KGU1 130703Z 34006KT 04/M01 A3015 RMK A01 T00411006  RH  072%=      5-min Rain = 0
KGU1 130704Z 35005KT 04/M01 A3015 RMK A01 T00421005  RH  072%=      5-min Rain = 0
KGU1 130705Z 36003KT 04/M00 A3016 RMK A01 T00431004  RH  072%=      5-min Rain = 0
KGU1 130706Z 22001KT 04/M01 A3016 RMK A01 T00441006  RH  071%=      5-min Rain = 0
KGU1 130707Z 19005KT 04/M01 A3016 RMK A01 T00411011  RH  070%=      5-min Rain = 0
KGU1 130708Z 10002KT 04/M01 A3016 RMK A01 T00411011  RH  069%=      5-min Rain = 0
KGU1 130709Z 06002KT 05/M02 A3016 RMK A01 T00451018  RH  064%=      5-min Rain = 0
KGU1 130710Z 04003KT 05/M02 A3016 RMK A01 T00481019  RH  062%=      5-min Rain = 0
KGU1 130711Z 04002KT 05/M02 A3016 RMK A01 T00501018  RH  062%=      5-min Rain = 0
KGU1 130712Z 16003KT 05/M02 A3015 RMK A01 T00491019  RH  062%=      5-min Rain = 0
KGU1 130713Z 18006KT 04/M02 A3015 RMK A01 T00431023  RH  062%=      5-min Rain = 0
KGU1 130714Z 20004KT 04/M03 A3015 RMK A01 T00361029  RH  063%=      5-min Rain = 0
KGU1 130715Z 28002KT 03/M03 A3015 RMK A01 T00321027  RH  066%=      5-min Rain = 0
KGU1 130716Z 32001KT 03/M02 A3015 RMK A01 T00331022  RH  068%=      5-min Rain = 0
KGU1 130717Z 33001KT 04/M02 A3015 RMK A01 T00351020  RH  067%=      5-min Rain = 0
KGU1 130718Z 33003KT 04/M02 A3015 RMK A01 T00371019  RH  067%=      5-min Rain = 0
KGU1 130719Z 31005KT 04/M02 A3015 RMK A01 T00361020  RH  067%=      5-min Rain = 0
KGU1 130720Z 32002KT 03/M02 A3015 RMK A01 T00341022  RH  067%=      5-min Rain = 0
KGU1 130721Z 31002KT 03/M02 A3015 RMK A01 T00331022  RH  068%=      5-min Rain = 0
KGU1 130722Z 29004KT 04/M02 A3015 RMK A01 T00361022  RH  066%=      5-min Rain = 0
KGU1 130723Z 24003KT 04/M02 A3015 RMK A01 T00371022  RH  066%=      5-min Rain = 0
KGU1 130724Z 19004KT 04/M02 A3015 RMK A01 T00381023  RH  065%=      5-min Rain = 0
KGU1 130725Z 19009KT 04/M03 A3015 RMK A01 T00361027  RH  064%=      5-min Rain = 0
KGU1 130726Z 20008KT 03/M04 A3015 RMK A01 T00301037  RH  062%=      5-min Rain = 0
KGU1 130727Z 20007KT 03/M04 A3015 RMK A01 T00251040  RH  063%=      5-min Rain = 0
KGU1 130728Z 23003KT 02/M04 A3015 RMK A01 T00231037  RH  065%=      5-min Rain = 0
KGU1 130729Z 31002KT 02/M04 A3015 RMK A01 T00231035  RH  066%=      5-min Rain = 0
KGU1 130730Z 29001KT 02/M03 A3015 RMK A01 T00231033  RH  067%=      5-min Rain = 0
KGU1 130731Z 17001KT 02/M03 A3015 RMK A01 T00241030  RH  068%=      5-min Rain = 0
KGU1 130732Z 06000KT 03/M03 A3015 RMK A01 T00271026  RH  068%=      5-min Rain = 0
KGU1 130733Z 01001KT 03/M02 A3015 RMK A01 T00321023  RH  068%=      5-min Rain = 0
KGU1 130734Z 35002KT 04/M03 A3015 RMK A01 T00351027  RH  065%=      5-min Rain = 0
KGU1 130735Z 01002KT 03/M03 A3015 RMK A01 T00331029  RH  064%=      5-min Rain = 0
KGU1 130736Z 07002KT 03/M03 A3015 RMK A01 T00321028  RH  065%=      5-min Rain = 0
KGU1 130737Z 19006KT 03/M03 A3015 RMK A01 T00331030  RH  064%=      5-min Rain = 0
KGU1 130738Z 22010KT 03/M04 A3015 RMK A01 T00261044  RH  060%=      5-min Rain = 0
KGU1 130739Z 21010G15KT 02/M05 A3015 RMK A01 T00171053  RH  060%=      5-min Rain = 0
KGU1 130740Z 22011KT 01/M06 A3015 RMK A01 T00111058  RH  060%=      5-min Rain = 0
KGU1 130741Z 22007KT 01/M06 A3015 RMK A01 T00071060  RH  061%=      5-min Rain = 0
KGU1 130742Z 23007KT 01/M06 A3015 RMK A01 T00051059  RH  062%=      5-min Rain = 0
KGU1 130743Z 28006KT 01/M05 A3015 RMK A01 T00061050  RH  066%=      5-min Rain = 0
KGU1 130744Z 25007KT 01/M04 A3015 RMK A01 T00101039  RH  070%=      5-min Rain = 0
KGU1 130745Z 23005KT 02/M03 A3015 RMK A01 T00151032  RH  072%=      5-min Rain = 0
KGU1 130746Z 21006KT 02/M03 A3015 RMK A01 T00181031  RH  071%=      5-min Rain = 0
KGU1 130747Z 22011KT 02/M03 A3015 RMK A01 T00191032  RH  069%=      5-min Rain = 0
KGU1 130748Z 21015KT 02/M05 A3015 RMK A01 T00161049  RH  062%=      5-min Rain = 0
KGU1 130749Z 22014KT 01/M06 A3015 RMK A01 T00091060  RH  060%=      5-min Rain = 0
KGU1 130750Z 22014G20KT 01/M06 A3014 RMK A01 T00061060  RH  061%=      5-min Rain = 0
KGU1 130751Z 22015KT 01/M06 A3014 RMK A01 T00051060  RH  062%=      5-min Rain = 0
KGU1 130752Z 22016KT 01/M06 A3014 RMK A01 T00061056  RH  063%=      5-min Rain = 0
KGU1 130753Z 23015KT 01/M05 A3014 RMK A01 T00091048  RH  066%=      5-min Rain = 0
KGU1 130754Z 24013KT 02/M03 A3014 RMK A01 T00171031  RH  071%=      5-min Rain = 0
KGU1 130755Z 24012KT 03/M01 A3014 RMK A01 T00291010  RH  076%=      5-min Rain = 0
KGU1 130756Z 24010G15KT 04/00 A3014 RMK A01 T00420004  RH  078%=      5-min Rain = 0
KGU1 130757Z 26010KT 06/02 A3014 RMK A01 T00570020  RH  078%=      5-min Rain = 0
KGU1 130758Z 26008KT 07/02 A3014 RMK A01 T00660024  RH  076%=      5-min Rain = 0
KGU1 130759Z 26008KT 07/01 A3013 RMK A01 T00680014  RH  070%=      5-min Rain = 0
KGU1 130800Z 26009KT 07/03 A3013 RMK A01 T00710027  RH  075%=      5-min Rain = 0
KGU1 130801Z 26010KT 08/03 A3013 RMK A01 T00750026  RH  072%=      5-min Rain = 0
KGU1 130802Z 25009KT 08/03 A3013 RMK A01 T00800031  RH  072%=      5-min Rain = 0
KGU1 130803Z 23006KT 09/04 A3013 RMK A01 T00850035  RH  072%=      5-min Rain = 0
KGU1 130804Z 23008KT 08/02 A3014 RMK A01 T00820018  RH  065%=      5-min Rain = 0
KGU1 130805Z 22009KT 07/M00 A3013 RMK A01 T00691002  RH  061%=      5-min Rain = 0
KGU1 130806Z 22009KT 06/M01 A3013 RMK A01 T00551013  RH  062%=      5-min Rain = 0
KGU1 130807Z 23009KT 05/M02 A3013 RMK A01 T00471017  RH  063%=      5-min Rain = 0
KGU1 130808Z 25010KT 04/M03 A3013 RMK A01 T00381031  RH  061%=      5-min Rain = 0
KGU1 130809Z 24009KT 03/M03 A3013 RMK A01 T00321033  RH  063%=      5-min Rain = 0
KGU1 130810Z 22010G17KT 03/M04 A3013 RMK A01 T00291035  RH  063%=      5-min Rain = 0
KGU1 130811Z 23012KT 04/M02 A3013 RMK A01 T00351018  RH  069%=      5-min Rain = 0
KGU1 130812Z 23011KT 04/M01 A3013 RMK A01 T00381013  RH  070%=      5-min Rain = 0
KGU1 130813Z 23010KT 04/M02 A3012 RMK A01 T00391018  RH  067%=      5-min Rain = 0
KGU1 130814Z 25010KT 04/M03 A3012 RMK A01 T00351027  RH  064%=      5-min Rain = 0
KGU1 130815Z 25010KT 04/M02 A3012 RMK A01 T00351016  RH  070%=      5-min Rain = 0
KGU1 130816Z 25006G12KT 05/01 A3012 RMK A01 T00450009  RH  079%=      5-min Rain = 0
KGU1 130817Z 24007KT 06/02 A3012 RMK A01 T00560020  RH  079%=      5-min Rain = 0
KGU1 130818Z 21013KT 06/01 A3012 RMK A01 T00600011  RH  072%=      5-min Rain = 0
KGU1 130819Z 21014KT 05/M03 A3012 RMK A01 T00461027  RH  059%=      5-min Rain = 0
KGU1 130820Z 22014KT 03/M04 A3012 RMK A01 T00311043  RH  059%=      5-min Rain = 0
KGU1 130821Z 22015G20KT 02/M04 A3012 RMK A01 T00231042  RH  062%=      5-min Rain = 0
KGU1 130822Z 22018G23KT 02/M05 A3012 RMK A01 T00181049  RH  061%=      5-min Rain = 0
KGU1 130823Z 21016KT 02/M05 A3012 RMK A01 T00171046  RH  063%=      5-min Rain = 0
KGU1 130824Z 22014KT 01/M05 A3013 RMK A01 T00141052  RH  062%=      5-min Rain = 0
KGU1 130825Z 22012G21KT 01/M06 A3013 RMK A01 T00101058  RH  060%=      5-min Rain = 0
KGU1 130826Z 21014G19KT 01/M06 A3013 RMK A01 T00081060  RH  061%=      5-min Rain = 0
KGU1 130827Z 22011KT 01/M06 A3013 RMK A01 T00071057  RH  062%=      5-min Rain = 0
KGU1 130828Z 22008G14KT 01/M05 A3013 RMK A01 T00091054  RH  063%=      5-min Rain = 0
KGU1 130829Z 28005KT 01/M05 A3013 RMK A01 T00091050  RH  065%=      5-min Rain = 0
KGU1 130830Z 22005G11KT 02/M03 A3013 RMK A01 T00151034  RH  071%=      5-min Rain = 0
KGU1 130831Z 25005KT 02/M03 A3013 RMK A01 T00211028  RH  071%=      5-min Rain = 0
KGU1 130832Z 23008KT 02/M04 A3013 RMK A01 T00211037  RH  066%=      5-min Rain = 0
KGU1 130833Z 20013KT 02/M05 A3013 RMK A01 T00161052  RH  061%=      5-min Rain = 0
KGU1 130834Z 22010G15KT 01/M06 A3013 RMK A01 T00121056  RH  061%=      5-min Rain = 0
KGU1 130835Z 29006KT 01/M04 A3013 RMK A01 T00141040  RH  068%=      5-min Rain = 0
KGU1 130836Z 28005KT 02/M02 A3014 RMK A01 T00231017  RH  075%=      5-min Rain = 0
KGU1 130837Z 33001KT 03/M03 A3014 RMK A01 T00251034  RH  065%=      5-min Rain = 0
KGU1 130838Z 33003KT 02/M04 A3013 RMK A01 T00231040  RH  063%=      5-min Rain = 0
KGU1 130839Z 33002KT 03/M02 A3013 RMK A01 T00261018  RH  073%=      5-min Rain = 0
KGU1 130840Z 32003KT 03/M02 A3013 RMK A01 T00291018  RH  072%=      5-min Rain = 0
KGU1 130841Z 31006KT 03/M02 A3013 RMK A01 T00311015  RH  072%=      5-min Rain = 0
KGU1 130842Z 29004KT 03/M02 A3013 RMK A01 T00331015  RH  071%=      5-min Rain = 0
KGU1 130843Z 21005KT 03/M02 A3013 RMK A01 T00331017  RH  071%=      5-min Rain = 0
KGU1 130844Z 21009KT 03/M02 A3013 RMK A01 T00311021  RH  069%=      5-min Rain = 0
KGU1 130845Z 21014G19KT 03/M04 A3013 RMK A01 T00261038  RH  063%=      5-min Rain = 0
KGU1 130846Z 20015G21KT 02/M06 A3013 RMK A01 T00161059  RH  058%=      5-min Rain = 0
KGU1 130847Z 21016G21KT 01/M06 A3013 RMK A01 T00091063  RH  059%=      5-min Rain = 0
KGU1 130848Z 22013KT 01/M06 A3013 RMK A01 T00071058  RH  062%=      5-min Rain = 0
KGU1 130849Z 23010KT 01/M04 A3012 RMK A01 T00111043  RH  067%=      5-min Rain = 0
KGU1 130850Z 29007KT 02/M03 A3013 RMK A01 T00191025  RH  073%=      5-min Rain = 0
KGU1 130851Z 31005KT 03/M00 A3013 RMK A01 T00321002  RH  079%=      5-min Rain = 0
KGU1 130852Z 28005KT 03/M02 A3013 RMK A01 T00341018  RH  069%=      5-min Rain = 0
KGU1 130853Z 19004G9KT 03/M03 A3013 RMK A01 T00311025  RH  067%=      5-min Rain = 0
KGU1 130854Z 19005KT 03/M03 A3013 RMK A01 T00291029  RH  066%=      5-min Rain = 0
KGU1 130855Z 22008KT 03/M03 A3012 RMK A01 T00281026  RH  068%=      5-min Rain = 0
KGU1 130856Z 21009KT 02/M05 A3012 RMK A01 T00221046  RH  061%=      5-min Rain = 0
KGU1 130857Z 21014KT 02/M04 A3011 RMK A01 T00191041  RH  065%=      5-min Rain = 0
KGU1 130858Z 22008G15KT 02/M03 A3012 RMK A01 T00211032  RH  068%=      5-min Rain = 0
KGU1 130859Z 29004KT 02/M03 A3012 RMK A01 T00241026  RH  070%=      5-min Rain = 0
KGU1 130900Z 35001KT 03/M02 A3012 RMK A01 T00261021  RH  072%=      5-min Rain = 0
KGU1 130901Z 20001KT 03/M02 A3011 RMK A01 T00271021  RH  071%=      5-min Rain = 0
KGU1 130902Z 27002KT 03/M02 A3011 RMK A01 T00281018  RH  072%=      5-min Rain = 0
KGU1 130903Z 27005KT 03/M01 A3011 RMK A01 T00301014  RH  073%=      5-min Rain = 0
KGU1 130904Z 26006KT 04/M00 A3011 RMK A01 T00351002  RH  078%=      5-min Rain = 0
KGU1 130905Z 25006KT 04/01 A3011 RMK A01 T00440014  RH  082%=      5-min Rain = 0
KGU1 130906Z 22009G15KT 05/01 A3011 RMK A01 T00470005  RH  075%=      5-min Rain = 0
KGU1 130907Z 21010G15KT 04/M03 A3011 RMK A01 T00381027  RH  063%=      5-min Rain = 0
KGU1 130908Z 22012KT 03/M03 A3011 RMK A01 T00301033  RH  064%=      5-min Rain = 0
KGU1 130909Z 22010KT 03/M04 A3011 RMK A01 T00261036  RH  064%=      5-min Rain = 0
KGU1 130910Z 22012G19KT 02/M04 A3011 RMK A01 T00211044  RH  063%=      5-min Rain = 0
KGU1 130911Z 21011G19KT 02/M05 A3011 RMK A01 T00171047  RH  063%=      5-min Rain = 0
KGU1 130912Z 22011KT 02/M04 A3011 RMK A01 T00171039  RH  067%=      5-min Rain = 0
KGU1 130913Z 22011KT 02/M03 A301 RMK A01 T00201032  RH  069%=      5-min Rain = 0
KGU1 130914Z 21010KT 02/M03 A3011 RMK A01 T00231029  RH  069%=      5-min Rain = 0
KGU1 130915Z 21014KT 02/M03 A301 RMK A01 T00231032  RH  067%=      5-min Rain = 0
KGU1 130916Z 22011KT 02/M04 A301 RMK A01 T00211039  RH  065%=      5-min Rain = 0
KGU1 130917Z 22009KT 02/M04 A3011 RMK A01 T00201036  RH  067%=      5-min Rain = 0
KGU1 130918Z 21012KT 02/M04 A301 RMK A01 T00211035  RH  067%=      5-min Rain = 0
KGU1 130919Z 22012KT 02/M03 A301 RMK A01 T00241025  RH  071%=      5-min Rain = 0
KGU1 130920Z 23009KT 03/M02 A301 RMK A01 T00291022  RH  070%=      5-min Rain = 0
KGU1 130921Z 25007KT 03/M02 A301 RMK A01 T00311018  RH  071%=      5-min Rain = 0
KGU1 130922Z 28003KT 04/M01 A301 RMK A01 T00351010  RH  073%=      5-min Rain = 0
KGU1 130923Z 32002KT 04/M01 A301 RMK A01 T00381007  RH  073%=      5-min Rain = 0
KGU1 130924Z 03002KT 04/M01 A301 RMK A01 T00391005  RH  073%=      5-min Rain = 0
KGU1 130925Z 05001KT 04/M01 A301 RMK A01 T00401008  RH  071%=      5-min Rain = 0
KGU1 130926Z 18004KT 04/M02 A301 RMK A01 T00381017  RH  068%=      5-min Rain = 0
KGU1 130927Z 15002KT 04/M02 A301 RMK A01 T00361015  RH  070%=      5-min Rain = 0
KGU1 130928Z 29003KT 04/M01 A301 RMK A01 T00361009  RH  073%=      5-min Rain = 0
KGU1 130929Z 22006G11KT 04/00 A301 RMK A01 T00400002  RH  077%=      5-min Rain = 0
KGU1 130930Z 23006KT 04/M02 A301 RMK A01 T00381019  RH  067%=      5-min Rain = 0
KGU1 130931Z 21005KT 03/M03 A301 RMK A01 T00331028  RH  064%=      5-min Rain = 0
KGU1 130932Z 25003G10KT 03/M03 A301 RMK A01 T00301026  RH  067%=      5-min Rain = 0
KGU1 130933Z 29005G10KT 03/M01 A301 RMK A01 T00331014  RH  072%=      5-min Rain = 0
KGU1 130934Z 23005KT 04/M01 A301 RMK A01 T00361009  RH  073%=      5-min Rain = 0
KGU1 130935Z 20008KT 04/M02 A301 RMK A01 T00351020  RH  068%=      5-min Rain = 0
KGU1 130936Z 21007KT 03/M03 A301 RMK A01 T00291032  RH  065%=      5-min Rain = 0
KGU1 130937Z 21005KT 03/M03 A301 RMK A01 T00261034  RH  065%=      5-min Rain = 0
KGU1 130938Z 20003KT 03/M03 A301 RMK A01 T00261026  RH  069%=      5-min Rain = 0
KGU1 130939Z 20002KT 03/M03 A301 RMK A01 T00261028  RH  068%=      5-min Rain = 0
KGU1 130940Z 08001KT 03/M03 A301 RMK A01 T00261025  RH  070%=      5-min Rain = 0
KGU1 130941Z 18004KT 03/M02 A301 RMK A01 T00281021  RH  071%=      5-min Rain = 0
KGU1 130942Z 18007KT 03/M03 A301 RMK A01 T00271028  RH  068%=      5-min Rain = 0
KGU1 130943Z 20009KT 03/M03 A301 RMK A01 T00251028  RH  068%=      5-min Rain = 0
KGU1 130944Z 20011KT 02/M03 A301 RMK A01 T00241033  RH  067%=      5-min Rain = 0
KGU1 130945Z 20011G17KT 02/M05 A301 RMK A01 T00161050  RH  061%=      5-min Rain = 0
KGU1 130946Z 20016KT 01/M06 A301 RMK A01 T00091057  RH  061%=      5-min Rain = 0
KGU1 130947Z 21013KT 01/M06 A301 RMK A01 T00061057  RH  063%=      5-min Rain = 0
KGU1 130948Z 20011KT 01/M05 A301 RMK A01 T00071053  RH  065%=      5-min Rain = 0
KGU1 130949Z 21012KT 01/M05 A301 RMK A01 T00091046  RH  067%=      5-min Rain = 0
KGU1 130950Z 20010KT 01/M05 A301 RMK A01 T00091050  RH  065%=      5-min Rain = 0
KGU1 130951Z 20013KT 01/M05 A301 RMK A01 T00081052  RH  064%=      5-min Rain = 0
KGU1 130952Z 21010KT 01/M05 A301 RMK A01 T00081050  RH  065%=      5-min Rain = 0
KGU1 130953Z 21009KT 01/M05 A301 RMK A01 T00091050  RH  065%=      5-min Rain = 0
KGU1 130954Z 19010KT 01/M05 A301 RMK A01 T00081050  RH  065%=      5-min Rain = 0
KGU1 130955Z 20008KT 01/M05 A3009 RMK A01 T00101046  RH  067%=      5-min Rain = 0
KGU1 130956Z 21006KT 01/M04 A3009 RMK A01 T00131039  RH  068%=      5-min Rain = 0
KGU1 130957Z 20006KT 02/M03 A3009 RMK A01 T00161034  RH  070%=      5-min Rain = 0
KGU1 130958Z 19006KT 02/M03 A3009 RMK A01 T00181034  RH  068%=      5-min Rain = 0
KGU1 130959Z 18005KT 02/M04 A3009 RMK A01 T00171041  RH  066%=      5-min Rain = 0
KGU1 131000Z 19007KT 02/M04 A3009 RMK A01 T00161039  RH  067%=      5-min Rain = 0
KGU1 131001Z 19009KT 02/M03 A3009 RMK A01 T00181032  RH  070%=      5-min Rain = 0
KGU1 131002Z 18006KT 02/M03 A3009 RMK A01 T00201033  RH  069%=      5-min Rain = 0
KGU1 131003Z 18007KT 02/M03 A3009 RMK A01 T00201032  RH  068%=      5-min Rain = 0
KGU1 131004Z 20006KT 02/M03 A3009 RMK A01 T00221030  RH  069%=      5-min Rain = 0
KGU1 131005Z 21003KT 02/M02 A3009 RMK A01 T00241024  RH  071%=      5-min Rain = 0
KGU1 131006Z 19011KT 03/M02 A3009 RMK A01 T00271022  RH  071%=      5-min Rain = 0
KGU1 131007Z 20012KT 02/M04 A3009 RMK A01 T00231039  RH  064%=      5-min Rain = 0
KGU1 131008Z 20008G13KT 02/M05 A301 RMK A01 T00161049  RH  062%=      5-min Rain = 0
KGU1 131009Z 22007KT 01/M05 A3009 RMK A01 T00121051  RH  063%=      5-min Rain = 0
KGU1 131010Z 21012KT 01/M05 A3009 RMK A01 T00111048  RH  065%=      5-min Rain = 0
KGU1 131011Z 21011KT 01/M04 A3009 RMK A01 T00121044  RH  067%=      5-min Rain = 0
KGU1 131012Z 26006KT 02/M03 A3009 RMK A01 T00181027  RH  073%=      5-min Rain = 0
KGU1 131013Z 32003KT 03/M02 A3009 RMK A01 T00261016  RH  075%=      5-min Rain = 0
KGU1 131014Z 00002KT 03/M01 A3009 RMK A01 T00321008  RH  075%=      5-min Rain = 0
KGU1 131015Z 34001KT 04/M01 A3009 RMK A01 T00371006  RH  075%=      5-min Rain = 0
KGU1 131016Z 01001KT 04/M00 A3009 RMK A01 T00401002  RH  074%=      5-min Rain = 0
KGU1 131017Z 32003KT 04/M01 A3009 RMK A01 T00421005  RH  072%=      5-min Rain = 0
KGU1 131018Z 34003KT 04/M00 A3009 RMK A01 T00431002  RH  074%=      5-min Rain = 0
KGU1 131019Z 31002KT 04/M00 A3009 RMK A01 T00441001  RH  074%=      5-min Rain = 0
KGU1 131020Z 33001KT 04/M00 A3009 RMK A01 T00441001  RH  074%=      5-min Rain = 0
KGU1 131021Z 06001KT 04/M00 A3009 RMK A01 T00441002  RH  073%=      5-min Rain = 0
KGU1 131022Z 00002KT 04/M00 A3009 RMK A01 T00441003  RH  072%=      5-min Rain = 0
KGU1 131023Z 31001KT 05/00 A3009 RMK A01 T00460004  RH  075%=      5-min Rain = 0
KGU1 131024Z 11001KT 05/01 A3009 RMK A01 T00480006  RH  075%=      5-min Rain = 0
KGU1 131025Z 21008G14KT 05/00 A3009 RMK A01 T00490000  RH  072%=      5-min Rain = 0
KGU1 131026Z 21006G11KT 04/M03 A3009 RMK A01 T00421025  RH  062%=      5-min Rain = 0
KGU1 131027Z 21008KT 03/M04 A3009 RMK A01 T00331035  RH  062%=      5-min Rain = 0
KGU1 131028Z 22005KT 03/M03 A3009 RMK A01 T00291031  RH  065%=      5-min Rain = 0
KGU1 131029Z 23002KT 03/M01 A3009 RMK A01 T00321012  RH  073%=      5-min Rain = 0
KGU1 131030Z 19002KT 04/M00 A3009 RMK A01 T00401002  RH  075%=      5-min Rain = 0
KGU1 131031Z 17001KT 04/M01 A3009 RMK A01 T00431006  RH  071%=      5-min Rain = 0
KGU1 131032Z 35003KT 04/M01 A3009 RMK A01 T00431009  RH  070%=      5-min Rain = 0
KGU1 131033Z 05001KT 04/M01 A3009 RMK A01 T00421009  RH  070%=      5-min Rain = 0
KGU1 131034Z 19007G14KT 04/M01 A3009 RMK A01 T00401014  RH  068%=      5-min Rain = 0
KGU1 131035Z 20010KT 03/M04 A3008 RMK A01 T00301040  RH  060%=      5-min Rain = 0
KGU1 131036Z 18004KT 02/M04 A3008 RMK A01 T00241037  RH  064%=      5-min Rain = 0
KGU1 131037Z 20008G13KT 02/M04 A3008 RMK A01 T00221040  RH  064%=      5-min Rain = 0
KGU1 131038Z 20012G18KT 02/M04 A3008 RMK A01 T00201041  RH  064%=      5-min Rain = 0
KGU1 131039Z 20012G18KT 01/M06 A3009 RMK A01 T00121056  RH  060%=      5-min Rain = 0
KGU1 131040Z 21013KT 01/M06 A3009 RMK A01 T00061060  RH  061%=      5-min Rain = 0
KGU1 131041Z 21014KT 00/M06 A3009 RMK A01 T00021062  RH  062%=      5-min Rain = 0
KGU1 131042Z 21012KT 00/M06 A3008 RMK A01 T00011061  RH  063%=      5-min Rain = 0
KGU1 131043Z 22012KT 00/06 A3008 RMK A01 T00000-59  RH  064%=      5-min Rain = 0
KGU1 131044Z 22011KT 00/M06 A3008 RMK A01 T00021056  RH  065%=      5-min Rain = 0
KGU1 131045Z 21012KT 00/M05 A3008 RMK A01 T00041054  RH  065%=      5-min Rain = 0
KGU1 131046Z 21014KT 01/M05 A3008 RMK A01 T00061052  RH  065%=      5-min Rain = 0
KGU1 131047Z 22013KT 01/M06 A3008 RMK A01 T00051058  RH  063%=      5-min Rain = 0
KGU1 131048Z 22010KT 00/M06 A3009 RMK A01 T00041058  RH  063%=      5-min Rain = 0
KGU1 131049Z 21012KT 00/M06 A3008 RMK A01 T00031061  RH  062%=      5-min Rain = 0
KGU1 131050Z 22012KT 00/M06 A3008 RMK A01 T00021060  RH  063%=      5-min Rain = 0
KGU1 131051Z 21012KT 00/M06 A3008 RMK A01 T00031059  RH  063%=      5-min Rain = 0
KGU1 131052Z 21012KT 00/M06 A3008 RMK A01 T00031058  RH  064%=      5-min Rain = 0
KGU1 131053Z 21015KT 00/M06 A3008 RMK A01 T00021061  RH  062%=      5-min Rain = 0
KGU1 131054Z 20013KT 00/07 A3008 RMK A01 T00-00-65  RH  062%=      5-min Rain = 0
KGU1 131055Z 21015KT M00/M07 A3008 RMK A01 T10021066  RH  062%=      5-min Rain = 0
KGU1 131056Z 21015KT M00/M07 A3008 RMK A01 T10041069  RH  061%=      5-min Rain = 0
KGU1 131057Z 21013KT M01/M07 A3008 RMK A01 T10051069  RH  062%=      5-min Rain = 0
KGU1 131058Z 22013G18KT M00/M07 A3008 RMK A01 T10041067  RH  063%=      5-min Rain = 0
KGU1 131059Z 22011KT M00/M06 A3008 RMK A01 T10021063  RH  064%=      5-min Rain = 0
KGU1 131100Z 21013KT M00/M06 A3008 RMK A01 T10011062  RH  064%=      5-min Rain = 0
KGU1 131101Z 22010KT M00/M06 A3008 RMK A01 T10011063  RH  063%=      5-min Rain = 0
KGU1 131102Z 22007KT 00/06 A3008 RMK A01 T00000-60  RH  064%=      5-min Rain = 0
KGU1 131103Z 24004KT 00/M06 A3008 RMK A01 T00031055  RH  065%=      5-min Rain = 0
KGU1 131104Z 25001KT 01/M05 A3008 RMK A01 T00051051  RH  066%=      5-min Rain = 0
KGU1 131105Z 20001KT 01/M05 A3008 RMK A01 T00071049  RH  067%=      5-min Rain = 0
KGU1 131106Z 21005KT 01/M05 A3008 RMK A01 T00091046  RH  067%=      5-min Rain = 0
KGU1 131107Z 20008KT 01/M05 A3008 RMK A01 T00121046  RH  065%=      5-min Rain = 0
KGU1 131108Z 21009KT 01/M05 A3008 RMK A01 T00101053  RH  063%=      5-min Rain = 0
KGU1 131109Z 21011KT 01/M06 A3008 RMK A01 T00081055  RH  063%=      5-min Rain = 0
KGU1 131110Z 21015KT 01/M06 A3008 RMK A01 T00071055  RH  063%=      5-min Rain = 0
KGU1 131111Z 21014KT 01/M06 A3008 RMK A01 T00061057  RH  063%=      5-min Rain = 0
KGU1 131112Z 21016G21KT 00/M06 A3008 RMK A01 T00031062  RH  062%=      5-min Rain = 0
KGU1 131113Z 21019KT 00/07 A3008 RMK A01 T00000-66  RH  061%=      5-min Rain = 0
KGU1 131114Z 21017KT M00/M07 A3008 RMK A01 T10031069  RH  061%=      5-min Rain = 0
KGU1 131115Z 21015G21KT M00/M07 A3008 RMK A01 T10041071  RH  061%=      5-min Rain = 0
KGU1 131116Z 21014KT M01/M07 A3008 RMK A01 T10061071  RH  061%=      5-min Rain = 0
KGU1 131117Z 21013KT M01/M07 A3008 RMK A01 T10061071  RH  061%=      5-min Rain = 0
KGU1 131118Z 22013KT M00/M07 A3008 RMK A01 T10041066  RH  063%=      5-min Rain = 0
KGU1 131119Z 22013KT M00/M06 A3008 RMK A01 T10011060  RH  065%=      5-min Rain = 0
KGU1 131120Z 23008KT 00/M05 A3008 RMK A01 T00041052  RH  066%=      5-min Rain = 0
KGU1 131121Z 23005KT 01/M05 A3008 RMK A01 T00091046  RH  067%=      5-min Rain = 0
KGU1 131122Z 23005KT 01/M04 A3009 RMK A01 T00121042  RH  067%=      5-min Rain = 0
KGU1 131123Z 27001KT 01/M04 A3009 RMK A01 T00141040  RH  068%=      5-min Rain = 0
KGU1 131124Z 32001KT 02/M04 A3009 RMK A01 T00161037  RH  068%=      5-min Rain = 0
KGU1 131125Z 22001KT 02/M04 A3008 RMK A01 T00171037  RH  068%=      5-min Rain = 0
KGU1 131126Z 25002KT 02/M04 A3008 RMK A01 T00181036  RH  068%=      5-min Rain = 0
KGU1 131127Z 20003KT 02/M03 A3008 RMK A01 T00191032  RH  069%=      5-min Rain = 0
KGU1 131128Z 21003KT 02/M03 A3008 RMK A01 T00211031  RH  069%=      5-min Rain = 0
KGU1 131129Z 24003KT 02/M03 A3008 RMK A01 T00231034  RH  066%=      5-min Rain = 0
KGU1 131130Z 23003KT 02/M03 A3008 RMK A01 T00231033  RH  067%=      5-min Rain = 0
KGU1 131131Z 22007KT 02/M03 A3008 RMK A01 T00241033  RH  066%=      5-min Rain = 0
KGU1 131132Z 21008KT 03/M03 A3008 RMK A01 T00251031  RH  067%=      5-min Rain = 0
KGU1 131133Z 22010KT 02/M04 A3008 RMK A01 T00221041  RH  063%=      5-min Rain = 0
KGU1 131134Z 23008KT 02/M04 A3008 RMK A01 T00201043  RH  064%=      5-min Rain = 0
KGU1 131135Z 22008KT 02/M04 A3008 RMK A01 T00201040  RH  065%=      5-min Rain = 0
KGU1 131136Z 23008KT 02/M04 A3008 RMK A01 T00201040  RH  065%=      5-min Rain = 0
KGU1 131137Z 20009G14KT 02/M04 A3008 RMK A01 T00201039  RH  065%=      5-min Rain = 0
KGU1 131138Z 20011KT 02/M05 A3008 RMK A01 T00161053  RH  060%=      5-min Rain = 0
KGU1 131139Z 20012KT 01/M06 A3008 RMK A01 T00121055  RH  061%=      5-min Rain = 0
KGU1 131140Z 21013KT 01/M06 A3008 RMK A01 T00091058  RH  061%=      5-min Rain = 0
KGU1 131141Z 20012KT 01/M06 A3008 RMK A01 T00081057  RH  062%=      5-min Rain = 0
KGU1 131142Z 21012KT 01/M06 A3008 RMK A01 T00081056  RH  062%=      5-min Rain = 0
KGU1 131143Z 21012KT 01/M06 A3007 RMK A01 T00081057  RH  062%=      5-min Rain = 0
KGU1 131144Z 21013KT 01/M06 A3008 RMK A01 T00081056  RH  062%=      5-min Rain = 0
KGU1 131145Z 21016KT 01/M05 A3007 RMK A01 T00091054  RH  063%=      5-min Rain = 0
KGU1 131146Z 21017KT 01/M06 A3007 RMK A01 T00101056  RH  062%=      5-min Rain = 0
KGU1 131147Z 21014KT 01/M06 A3008 RMK A01 T00091059  RH  061%=      5-min Rain = 0
KGU1 131148Z 21015KT 01/M06 A3008 RMK A01 T00081058  RH  061%=      5-min Rain = 0
KGU1 131149Z 21012KT 01/M06 A3008 RMK A01 T00081057  RH  062%=      5-min Rain = 0
KGU1 131150Z 21009KT 01/M06 A3007 RMK A01 T00091055  RH  062%=      5-min Rain = 0
KGU1 131151Z 21008KT 01/M05 A3007 RMK A01 T00111049  RH  065%=      5-min Rain = 0
KGU1 131152Z 19009KT 01/M05 A3007 RMK A01 T00121050  RH  064%=      5-min Rain = 0
KGU1 131153Z 19013KT 01/M05 A3007 RMK A01 T00131049  RH  064%=      5-min Rain = 0
KGU1 131154Z 19016KT 01/M06 A3007 RMK A01 T00111057  RH  061%=      5-min Rain = 0
KGU1 131155Z 20015KT 01/M06 A3007 RMK A01 T00061063  RH  060%=      5-min Rain = 0
KGU1 131156Z 19012G18KT 00/M06 A3007 RMK A01 T00041064  RH  061%=      5-min Rain = 0
KGU1 131157Z 20010KT 00/M06 A3007 RMK A01 T00031063  RH  061%=      5-min Rain = 0
KGU1 131158Z 21012KT 00/M06 A3007 RMK A01 T00031061  RH  062%=      5-min Rain = 0
KGU1 131159Z 22007KT 01/M06 A3007 RMK A01 T00061056  RH  063%=      5-min Rain = 0
KGU1 131200Z 22009KT 01/M05 A3007 RMK A01 T00081054  RH  063%=      5-min Rain = 0
KGU1 131201Z 22008KT 01/M04 A3007 RMK A01 T00131044  RH  066%=      5-min Rain = 0
KGU1 131202Z 20009KT 02/M04 A3007 RMK A01 T00191041  RH  065%=      5-min Rain = 0
KGU1 131203Z 20011KT 02/M05 A3007 RMK A01 T00171049  RH  062%=      5-min Rain = 0
KGU1 131204Z 21013KT 02/M04 A3007 RMK A01 T00181042  RH  065%=      5-min Rain = 0
KGU1 131205Z 21013KT 02/M05 A3007 RMK A01 T00181047  RH  062%=      5-min Rain = 0
KGU1 131206Z 21011KT 01/M06 A3007 RMK A01 T00111061  RH  059%=      5-min Rain = 0
KGU1 131207Z 21012KT 01/M07 A3007 RMK A01 T00061065  RH  059%=      5-min Rain = 0
KGU1 131208Z 21011KT 00/M07 A3007 RMK A01 T00031067  RH  060%=      5-min Rain = 0
KGU1 131209Z 21009KT 00/M07 A3007 RMK A01 T00011067  RH  060%=      5-min Rain = 0
KGU1 131210Z 20009KT 00/M06 A3007 RMK A01 T00011063  RH  062%=      5-min Rain = 0
KGU1 131211Z 21010KT 00/M06 A3007 RMK A01 T00031060  RH  062%=      5-min Rain = 0
KGU1 131212Z 21010KT 01/M06 A3007 RMK A01 T00061056  RH  063%=      5-min Rain = 0
KGU1 131213Z 21011KT 01/M05 A3007 RMK A01 T00101053  RH  063%=      5-min Rain = 0
KGU1 131214Z 20011KT 01/M06 A3007 RMK A01 T00111056  RH  061%=      5-min Rain = 0
KGU1 131215Z 21015KT 01/M06 A3007 RMK A01 T00101060  RH  060%=      5-min Rain = 0
KGU1 131216Z 21016KT 01/M07 A3007 RMK A01 T00071065  RH  058%=      5-min Rain = 0
KGU1 131217Z 21014KT 00/M07 A3007 RMK A01 T00031068  RH  059%=      5-min Rain = 0
KGU1 131218Z 21012KT 00/M06 A3007 RMK A01 T00041064  RH  061%=      5-min Rain = 0
KGU1 131219Z 21013KT 01/M06 A3007 RMK A01 T00051064  RH  060%=      5-min Rain = 0
KGU1 131220Z 21014KT 00/M07 A3007 RMK A01 T00031067  RH  059%=      5-min Rain = 0
KGU1 131221Z 22013KT 00/M07 A3007 RMK A01 T00031066  RH  060%=      5-min Rain = 0
KGU1 131222Z 22013KT 01/M06 A3007 RMK A01 T00051063  RH  060%=      5-min Rain = 0
KGU1 131223Z 21016KT 01/M06 A3007 RMK A01 T00061064  RH  060%=      5-min Rain = 0
KGU1 131224Z 21016KT 00/M07 A3007 RMK A01 T00041066  RH  060%=      5-min Rain = 0
KGU1 131225Z 21014KT 00/M07 A3007 RMK A01 T00031066  RH  060%=      5-min Rain = 0
KGU1 131226Z 21012KT 00/M06 A3007 RMK A01 T00041063  RH  061%=      5-min Rain = 0
KGU1 131227Z 21014KT 01/M06 A3007 RMK A01 T00061061  RH  061%=      5-min Rain = 0
KGU1 131228Z 21014KT 01/M06 A3007 RMK A01 T00051064  RH  060%=      5-min Rain = 0
KGU1 131229Z 21013KT 01/M06 A3007 RMK A01 T00051063  RH  060%=      5-min Rain = 0
KGU1 131230Z 22014KT 01/M06 A3007 RMK A01 T00061063  RH  060%=      5-min Rain = 0
KGU1 131231Z 22013KT 00/M07 A3007 RMK A01 T00031070  RH  058%=      5-min Rain = 0
KGU1 131232Z 22010KT 00/M07 A3007 RMK A01 T00011070  RH  059%=      5-min Rain = 0
KGU1 131233Z 25006KT 00/M06 A3007 RMK A01 T00031063  RH  061%=      5-min Rain = 0
KGU1 131234Z 23006KT 01/M05 A3007 RMK A01 T00101050  RH  065%=      5-min Rain = 0
KGU1 131235Z 22005KT 02/M05 A3007 RMK A01 T00191045  RH  063%=      5-min Rain = 0
KGU1 131236Z 32004KT 02/M05 A3007 RMK A01 T00201051  RH  060%=      5-min Rain = 0
KGU1 131237Z 26006KT 02/M04 A3007 RMK A01 T00231040  RH  063%=      5-min Rain = 0
KGU1 131238Z 26003KT 03/M03 A3007 RMK A01 T00341033  RH  062%=      5-min Rain = 0
KGU1 131239Z 20004KT 04/M04 A3007 RMK A01 T00371036  RH  059%=      5-min Rain = 0
KGU1 131240Z 19009KT 03/M05 A3007 RMK A01 T00321050  RH  055%=      5-min Rain = 0
KGU1 131241Z 20012KT 02/M06 A3007 RMK A01 T00231057  RH  056%=      5-min Rain = 0
KGU1 131242Z 21013KT 02/M06 A3007 RMK A01 T00151063  RH  056%=      5-min Rain = 0
KGU1 131243Z 21012KT 01/M07 A3007 RMK A01 T00081069  RH  056%=      5-min Rain = 0
KGU1 131244Z 21012KT 00/M07 A3007 RMK A01 T00031071  RH  057%=      5-min Rain = 0
KGU1 131245Z 21013KT 00/M07 A3007 RMK A01 T00011071  RH  059%=      5-min Rain = 0
KGU1 131246Z 21011KT 00/M07 A3006 RMK A01 T00011069  RH  060%=      5-min Rain = 0
KGU1 131247Z 20010KT 00/M07 A3006 RMK A01 T00021068  RH  059%=      5-min Rain = 0
KGU1 131248Z 21008KT 00/M07 A3006 RMK A01 T00021067  RH  060%=      5-min Rain = 0
KGU1 131249Z 20004KT 00/M06 A3006 RMK A01 T00041062  RH  062%=      5-min Rain = 0
KGU1 131250Z 19007KT 01/M06 A3006 RMK A01 T00071055  RH  063%=      5-min Rain = 0
KGU1 131251Z 19010KT 01/M06 A3006 RMK A01 T00121055  RH  061%=      5-min Rain = 0
KGU1 131252Z 18010KT 01/M06 A3006 RMK A01 T00111060  RH  059%=      5-min Rain = 0
KGU1 131253Z 20010KT 01/M06 A3006 RMK A01 T00091063  RH  059%=      5-min Rain = 0
KGU1 131254Z 21011KT 01/M06 A3006 RMK A01 T00081063  RH  059%=      5-min Rain = 0
KGU1 131255Z 21010KT 01/M07 A3006 RMK A01 T00071065  RH  059%=      5-min Rain = 0
KGU1 131256Z 22010KT 01/M07 A3006 RMK A01 T00061065  RH  059%=      5-min Rain = 0
KGU1 131257Z 21013KT 01/M07 A3006 RMK A01 T00051068  RH  058%=      5-min Rain = 0
KGU1 131258Z 21014G19KT M00/M08 A3006 RMK A01 T10011076  RH  057%=      5-min Rain = 0
KGU1 131259Z 21013G18KT M01/M08 A3006 RMK A01 T10061077  RH  059%=      5-min Rain = 0
KGU1 131300Z 21012KT M01/M08 A3006 RMK A01 T10071075  RH  060%=      5-min Rain = 0
KGU1 131301Z 22010G16KT M01/M07 A3007 RMK A01 T10061073  RH  061%=      5-min Rain = 0
KGU1 131302Z 21011G16KT M00/M07 A3006 RMK A01 T10041069  RH  062%=      5-min Rain = 0
KGU1 131303Z 21011G16KT M00/M07 A3007 RMK A01 T10011066  RH  062%=      5-min Rain = 0
KGU1 131304Z 21010KT 00/07 A3007 RMK A01 T00000-70  RH  059%=      5-min Rain = 0
KGU1 131305Z 20011KT M00/M08 A3007 RMK A01 T10041077  RH  057%=      5-min Rain = 0
KGU1 131306Z 21008KT M01/M08 A3007 RMK A01 T10071080  RH  058%=      5-min Rain = 0
KGU1 131307Z 21009KT M01/M08 A3007 RMK A01 T10091078  RH  059%=      5-min Rain = 0
KGU1 131308Z 21011KT M01/M07 A3007 RMK A01 T10071074  RH  061%=      5-min Rain = 0
KGU1 131309Z 24010KT M01/M07 A3007 RMK A01 T10061074  RH  060%=      5-min Rain = 0
KGU1 131310Z 22009KT M01/M07 A3007 RMK A01 T10051073  RH  060%=      5-min Rain = 0
KGU1 131311Z 21012KT M00/M07 A3006 RMK A01 T10041072  RH  060%=      5-min Rain = 0
KGU1 131312Z 22011KT M01/M08 A3006 RMK A01 T10051075  RH  059%=      5-min Rain = 0
KGU1 131313Z 25008KT M01/M07 A3006 RMK A01 T10051073  RH  060%=      5-min Rain = 0
KGU1 131314Z 24006KT M00/M07 A3006 RMK A01 T10011067  RH  061%=      5-min Rain = 0
KGU1 131315Z 21006KT 00/M06 A3006 RMK A01 T00041059  RH  062%=      5-min Rain = 0
KGU1 131316Z 25005KT 01/M06 A3006 RMK A01 T00111055  RH  062%=      5-min Rain = 0
KGU1 131317Z 23009KT 02/M05 A3006 RMK A01 T00151053  RH  061%=      5-min Rain = 0
KGU1 131318Z 21012KT 02/M06 A3006 RMK A01 T00181055  RH  059%=      5-min Rain = 0
KGU1 131319Z 23011KT 02/M06 A3006 RMK A01 T00151061  RH  057%=      5-min Rain = 0
KGU1 131320Z 24010KT 01/M07 A3006 RMK A01 T00111066  RH  057%=      5-min Rain = 0
KGU1 131321Z 21015G20KT 01/M07 A3006 RMK A01 T00081071  RH  056%=      5-min Rain = 0
KGU1 131322Z 21015KT 00/M08 A3006 RMK A01 T00021076  RH  056%=      5-min Rain = 0
KGU1 131323Z 23009G14KT M00/M07 A3006 RMK A01 T10011073  RH  058%=      5-min Rain = 0
KGU1 131324Z 22008KT 01/M06 A3006 RMK A01 T00051064  RH  060%=      5-min Rain = 0
KGU1 131325Z 22011KT 00/M07 A3006 RMK A01 T00041073  RH  056%=      5-min Rain = 0
KGU1 131326Z 22012KT M00/M08 A3006 RMK A01 T10011076  RH  057%=      5-min Rain = 0
KGU1 131327Z 22010KT M00/M07 A3006 RMK A01 T10021073  RH  059%=      5-min Rain = 0
KGU1 131328Z 23011KT M00/M07 A3006 RMK A01 T10011072  RH  059%=      5-min Rain = 0
KGU1 131329Z 22010KT 00/07 A3006 RMK A01 T00-00-71  RH  059%=      5-min Rain = 0
KGU1 131330Z 22012KT 00/M07 A3006 RMK A01 T00011069  RH  059%=      5-min Rain = 0
KGU1 131331Z 22010KT 00/M07 A3006 RMK A01 T00031068  RH  059%=      5-min Rain = 0
KGU1 131332Z 23010KT 01/M06 A3006 RMK A01 T00071064  RH  059%=      5-min Rain = 0
KGU1 131333Z 26007KT 01/M06 A3007 RMK A01 T00101060  RH  059%=      5-min Rain = 0
KGU1 131334Z 24007KT 01/M06 A3006 RMK A01 T00131058  RH  059%=      5-min Rain = 0
KGU1 131335Z 24008KT 01/M06 A3006 RMK A01 T00141060  RH  058%=      5-min Rain = 0
KGU1 131336Z 22012G17KT 01/M06 A3006 RMK A01 T00121063  RH  057%=      5-min Rain = 0
KGU1 131337Z 22013KT 01/M07 A3006 RMK A01 T00061070  RH  057%=      5-min Rain = 0
KGU1 131338Z 22010KT 00/M07 A3006 RMK A01 T00021070  RH  058%=      5-min Rain = 0
KGU1 131339Z 22010KT 00/M07 A3006 RMK A01 T00031067  RH  059%=      5-min Rain = 0
KGU1 131340Z 22010KT 00/M07 A3006 RMK A01 T00031068  RH  059%=      5-min Rain = 0
KGU1 131341Z 24010KT 01/M06 A3006 RMK A01 T00071062  RH  060%=      5-min Rain = 0
KGU1 131342Z 23008KT 01/M06 A3006 RMK A01 T00081064  RH  059%=      5-min Rain = 0
KGU1 131343Z 27007KT 01/M06 A3006 RMK A01 T00081064  RH  059%=      5-min Rain = 0
KGU1 131344Z 25006KT 01/M05 A3006 RMK A01 T00131054  RH  061%=      5-min Rain = 0
KGU1 131345Z 29003KT 02/M05 A3006 RMK A01 T00221047  RH  061%=      5-min Rain = 0
KGU1 131346Z 26007KT 03/M05 A3006 RMK A01 T00271047  RH  058%=      5-min Rain = 0
KGU1 131347Z 22005KT 03/M04 A3006 RMK A01 T00321044  RH  057%=      5-min Rain = 0
KGU1 131348Z 21004KT 04/M04 A3006 RMK A01 T00411042  RH  055%=      5-min Rain = 0
KGU1 131349Z 26005KT 05/M04 A3006 RMK A01 T00461042  RH  053%=      5-min Rain = 0
KGU1 131350Z 22005KT 05/M05 A3006 RMK A01 T00451045  RH  052%=      5-min Rain = 0
KGU1 131351Z 22007KT 04/M05 A3006 RMK A01 T00441046  RH  052%=      5-min Rain = 0
KGU1 131352Z 24006KT 05/M04 A3006 RMK A01 T00451043  RH  053%=      5-min Rain = 0
KGU1 131353Z 24005KT 05/M04 A3006 RMK A01 T00461043  RH  053%=      5-min Rain = 0
KGU1 131354Z 26006KT 05/M04 A3006 RMK A01 T00461043  RH  053%=      5-min Rain = 0
KGU1 131355Z 26005KT 04/M04 A3006 RMK A01 T00441043  RH  053%=      5-min Rain = 0
KGU1 131356Z 25005KT 04/M04 A3006 RMK A01 T00441041  RH  054%=      5-min Rain = 0
KGU1 131357Z 29006KT 05/M04 A3006 RMK A01 T00451039  RH  055%=      5-min Rain = 0
KGU1 131358Z 26004KT 05/M04 A3006 RMK A01 T00461038  RH  055%=      5-min Rain = 0
KGU1 131359Z 23006KT 05/M04 A3006 RMK A01 T00461038  RH  055%=      5-min Rain = 0
KGU1 131400Z 21011KT 04/M05 A3006 RMK A01 T00421046  RH  053%=      5-min Rain = 0
KGU1 131401Z 21011KT 03/M05 A3006 RMK A01 T00321052  RH  054%=      5-min Rain = 0
KGU1 131402Z 21013KT 03/M05 A3006 RMK A01 T00261053  RH  056%=      5-min Rain = 0
KGU1 131403Z 21012KT 02/M05 A3006 RMK A01 T00221052  RH  058%=      5-min Rain = 0
KGU1 131404Z 21011KT 03/M05 A3006 RMK A01 T00271047  RH  058%=      5-min Rain = 0
KGU1 131405Z 23011KT 03/M05 A3006 RMK A01 T00311046  RH  057%=      5-min Rain = 0
KGU1 131406Z 22009KT 03/M05 A3006 RMK A01 T00331047  RH  056%=      5-min Rain = 0
KGU1 131407Z 22010KT 03/M05 A3006 RMK A01 T00331048  RH  056%=      5-min Rain = 0
KGU1 131408Z 21010KT 04/M05 A3006 RMK A01 T00351047  RH  055%=      5-min Rain = 0
KGU1 131409Z 21010KT 03/M05 A3006 RMK A01 T00331053  RH  053%=      5-min Rain = 0
KGU1 131410Z 21012KT 03/M05 A3006 RMK A01 T00291054  RH  054%=      5-min Rain = 0
KGU1 131411Z 22010KT 03/M06 A3006 RMK A01 T00251055  RH  055%=      5-min Rain = 0
KGU1 131412Z 25007KT 03/M05 A3006 RMK A01 T00251052  RH  057%=      5-min Rain = 0
KGU1 131413Z 22008KT 02/M06 A3006 RMK A01 T00241055  RH  056%=      5-min Rain = 0
KGU1 131414Z 21011KT 02/M06 A3006 RMK A01 T00191058  RH  057%=      5-min Rain = 0
KGU1 131415Z 22009KT 02/M06 A3006 RMK A01 T00181057  RH  058%=      5-min Rain = 0
KGU1 131416Z 24006KT 02/M05 A3006 RMK A01 T00201053  RH  058%=      5-min Rain = 0
KGU1 131417Z 25006KT 03/M05 A3006 RMK A01 T00261049  RH  058%=      5-min Rain = 0
KGU1 131418Z 25007KT 03/M04 A3006 RMK A01 T00321044  RH  058%=      5-min Rain = 0
KGU1 131419Z 22006KT 04/M05 A3006 RMK A01 T00361045  RH  055%=      5-min Rain = 0
KGU1 131420Z 22008KT 04/M05 A3006 RMK A01 T00381048  RH  054%=      5-min Rain = 0
KGU1 131421Z 24007KT 04/M05 A3006 RMK A01 T00391048  RH  053%=      5-min Rain = 0
KGU1 131422Z 22005KT 04/M05 A3006 RMK A01 T00411046  RH  053%=      5-min Rain = 0
KGU1 131423Z 21006KT 04/M05 A3006 RMK A01 T00431045  RH  053%=      5-min Rain = 0
KGU1 131424Z 21012KT 04/M05 A3006 RMK A01 T00411050  RH  052%=      5-min Rain = 0
KGU1 131425Z 21010KT 03/M06 A3006 RMK A01 T00341057  RH  051%=      5-min Rain = 0
KGU1 131426Z 21009KT 03/M06 A3006 RMK A01 T00291057  RH  053%=      5-min Rain = 0
KGU1 131427Z 21008KT 03/M06 A3006 RMK A01 T00271056  RH  054%=      5-min Rain = 0
KGU1 131428Z 22008KT 03/M05 A3006 RMK A01 T00281054  RH  055%=      5-min Rain = 0
KGU1 131429Z 24004KT 03/M05 A3006 RMK A01 T00311052  RH  055%=      5-min Rain = 0
KGU1 131430Z 22005KT 03/M05 A3006 RMK A01 T00341050  RH  055%=      5-min Rain = 0
KGU1 131431Z 23007KT 04/M05 A3006 RMK A01 T00361051  RH  053%=      5-min Rain = 0
KGU1 131432Z 22008KT 03/M05 A3006 RMK A01 T00341053  RH  053%=      5-min Rain = 0
KGU1 131433Z 22007KT 03/M05 A3006 RMK A01 T00331052  RH  054%=      5-min Rain = 0
KGU1 131434Z 21010KT 03/M05 A3006 RMK A01 T00341051  RH  054%=      5-min Rain = 0
KGU1 131435Z 23010KT 03/M05 A3006 RMK A01 T00341053  RH  053%=      5-min Rain = 0
KGU1 131436Z 22010KT 03/M05 A3006 RMK A01 T00331054  RH  053%=      5-min Rain = 0
KGU1 131437Z 21011KT 03/M05 A3006 RMK A01 T00331054  RH  053%=      5-min Rain = 0
KGU1 131438Z 21009KT 03/M05 A3006 RMK A01 T00341053  RH  053%=      5-min Rain = 0
KGU1 131439Z 21012KT 04/M05 A3006 RMK A01 T00361052  RH  053%=      5-min Rain = 0
KGU1 131440Z 20011KT 03/M05 A3006 RMK A01 T00341054  RH  052%=      5-min Rain = 0
KGU1 131441Z 21015KT 03/M06 A3006 RMK A01 T00311057  RH  052%=      5-min Rain = 0
KGU1 131442Z 21012KT 02/M06 A3006 RMK A01 T00241062  RH  053%=      5-min Rain = 0
KGU1 131443Z 22010KT 02/M06 A3007 RMK A01 T00221061  RH  054%=      5-min Rain = 0
KGU1 131444Z 23009KT 02/M06 A3007 RMK A01 T00221060  RH  055%=      5-min Rain = 0
KGU1 131445Z 24007KT 02/M06 A3007 RMK A01 T00241057  RH  055%=      5-min Rain = 0
KGU1 131446Z 24004KT 03/M05 A3007 RMK A01 T00331050  RH  054%=      5-min Rain = 0
KGU1 131447Z 24004KT 04/M05 A3007 RMK A01 T00411048  RH  053%=      5-min Rain = 0
KGU1 131448Z 22008KT 05/M05 A3007 RMK A01 T00451047  RH  051%=      5-min Rain = 0
KGU1 131449Z 21007KT 04/M06 A3007 RMK A01 T00441055  RH  049%=      5-min Rain = 0
KGU1 131450Z 22008KT 04/M06 A3007 RMK A01 T00401055  RH  050%=      5-min Rain = 0
KGU1 131451Z 24005KT 04/M05 A3007 RMK A01 T00421052  RH  051%=      5-min Rain = 0
KGU1 131452Z 24006KT 05/M05 A3007 RMK A01 T00461052  RH  049%=      5-min Rain = 0
KGU1 131453Z 20005G10KT 05/M05 A3007 RMK A01 T00501048  RH  049%=      5-min Rain = 0
KGU1 131454Z 20011KT 05/M05 A3006 RMK A01 T00541052  RH  046%=      5-min Rain = 0
KGU1 131455Z 20009G14KT 04/M06 A3007 RMK A01 T00441063  RH  046%=      5-min Rain = 0
KGU1 131456Z 31003KT 04/M06 A3007 RMK A01 T00381061  RH  049%=      5-min Rain = 0
KGU1 131457Z 22003KT 04/M05 A3007 RMK A01 T00411054  RH  050%=      5-min Rain = 0
KGU1 131458Z 22006KT 05/M05 A3007 RMK A01 T00451054  RH  049%=      5-min Rain = 0
KGU1 131459Z 21009KT 04/M06 A3007 RMK A01 T00431061  RH  047%=      5-min Rain = 0
KGU1 131500Z 20010KT 04/M06 A3007 RMK A01 T00401060  RH  048%=      5-min Rain = 0
KGU1 131501Z 22009KT 04/M06 A3007 RMK A01 T00421059  RH  048%=      5-min Rain = 0
KGU1 131502Z 21008KT 05/M06 A3007 RMK A01 T00451056  RH  048%=      5-min Rain = 0
KGU1 131503Z 21011KT 05/M06 A3007 RMK A01 T00491055  RH  047%=      5-min Rain = 0
KGU1 131504Z 21009KT 05/M05 A3007 RMK A01 T00531054  RH  046%=      5-min Rain = 0
KGU1 131505Z 21008KT 06/M06 A3007 RMK A01 T00561055  RH  045%=      5-min Rain = 0
KGU1 131506Z 21005KT 06/M05 A3007 RMK A01 T00601053  RH  044%=      5-min Rain = 0
KGU1 131507Z 22002G7KT 07/M04 A3007 RMK A01 T00701041  RH  045%=      5-min Rain = 0
KGU1 131508Z 28005KT 09/M04 A3007 RMK A01 T00901036  RH  041%=      5-min Rain = 0
KGU1 131509Z 32003KT 10/M04 A3007 RMK A01 T00971036  RH  039%=      5-min Rain = 0
KGU1 131510Z 35000KT 11/M03 A3007 RMK A01 T01071031  RH  038%=      5-min Rain = 0
KGU1 131511Z 28001KT 12/M03 A3007 RMK A01 T01151030  RH  036%=      5-min Rain = 0
KGU1 131512Z 27003KT 12/M03 A3007 RMK A01 T01171033  RH  035%=      5-min Rain = 0
KGU1 131513Z 24004KT 11/M04 A3007 RMK A01 T01131037  RH  035%=      5-min Rain = 0
KGU1 131514Z 14006KT 10/M05 A3007 RMK A01 T01031047  RH  035%=      5-min Rain = 0
KGU1 131515Z 16008KT 09/M05 A3007 RMK A01 T00881054  RH  036%=      5-min Rain = 0
KGU1 131516Z 20011KT 08/M06 A3007 RMK A01 T00791055  RH  038%=      5-min Rain = 0
KGU1 131517Z 21011KT 07/M07 A3007 RMK A01 T00651067  RH  038%=      5-min Rain = 0
KGU1 131518Z 21010KT 05/M08 A3007 RMK A01 T00501075  RH  040%=      5-min Rain = 0
KGU1 131519Z 21010KT 04/M08 A3007 RMK A01 T00381078  RH  042%=      5-min Rain = 0
KGU1 131520Z 21011KT 03/M08 A3007 RMK A01 T00321077  RH  045%=      5-min Rain = 0
KGU1 131521Z 20009KT 03/M08 A3007 RMK A01 T00291076  RH  046%=      5-min Rain = 0
KGU1 131522Z 20008KT 03/M07 A3007 RMK A01 T00301073  RH  047%=      5-min Rain = 0
KGU1 131523Z 20006KT 03/M07 A3007 RMK A01 T00321070  RH  047%=      5-min Rain = 0
KGU1 131524Z 19006KT 04/M07 A3007 RMK A01 T00361069  RH  046%=      5-min Rain = 0
KGU1 131525Z 19010KT 04/M07 A3007 RMK A01 T00401067  RH  046%=      5-min Rain = 0
KGU1 131526Z 20011KT 04/M07 A3007 RMK A01 T00411069  RH  045%=      5-min Rain = 0
KGU1 131527Z 21011KT 04/M07 A3006 RMK A01 T00401069  RH  045%=      5-min Rain = 0
KGU1 131528Z 21007KT 04/M07 A3007 RMK A01 T00421067  RH  045%=      5-min Rain = 0
KGU1 131529Z 20008KT 05/M06 A3006 RMK A01 T00461064  RH  045%=      5-min Rain = 0
KGU1 131530Z 20009KT 05/M06 A3006 RMK A01 T00481064  RH  044%=      5-min Rain = 0
KGU1 131531Z 21007KT 05/M06 A3006 RMK A01 T00511061  RH  044%=      5-min Rain = 0
KGU1 131532Z 23005KT 05/M06 A3006 RMK A01 T00541062  RH  043%=      5-min Rain = 0
KGU1 131533Z 20005KT 06/M06 A3006 RMK A01 T00571059  RH  043%=      5-min Rain = 0
KGU1 131534Z 20008KT 06/M06 A3006 RMK A01 T00591061  RH  042%=      5-min Rain = 0
KGU1 131535Z 19007KT 06/M06 A3006 RMK A01 T00581062  RH  042%=      5-min Rain = 0
KGU1 131536Z 20006KT 06/M06 A3006 RMK A01 T00571062  RH  042%=      5-min Rain = 0
KGU1 131537Z 19008KT 06/M06 A3006 RMK A01 T00571063  RH  042%=      5-min Rain = 0
KGU1 131538Z 21009KT 06/M06 A3006 RMK A01 T00561062  RH  042%=      5-min Rain = 0
KGU1 131539Z 20011KT 06/M06 A3006 RMK A01 T00571061  RH  042%=      5-min Rain = 0
KGU1 131540Z 21013KT 05/M07 A3006 RMK A01 T00531067  RH  042%=      5-min Rain = 0
KGU1 131541Z 22011KT 05/M07 A3006 RMK A01 T00481068  RH  043%=      5-min Rain = 0
KGU1 131542Z 22010KT 05/M07 A3006 RMK A01 T00451069  RH  043%=      5-min Rain = 0
KGU1 131543Z 21010KT 05/M07 A3006 RMK A01 T00451067  RH  044%=      5-min Rain = 0
KGU1 131544Z 21010KT 05/M07 A3006 RMK A01 T00451067  RH  044%=      5-min Rain = 0
KGU1 131545Z 21011KT 05/M07 A3006 RMK A01 T00471066  RH  044%=      5-min Rain = 0
KGU1 131546Z 21013KT 05/M07 A3006 RMK A01 T00461068  RH  043%=      5-min Rain = 0
KGU1 131547Z 21011KT 04/M07 A3006 RMK A01 T00441070  RH  044%=      5-min Rain = 0
KGU1 131548Z 21013KT 04/M07 A3006 RMK A01 T00431068  RH  044%=      5-min Rain = 0
KGU1 131549Z 21012KT 04/M07 A3006 RMK A01 T00441068  RH  044%=      5-min Rain = 0
KGU1 131550Z 21009KT 04/M07 A3006 RMK A01 T00441067  RH  044%=      5-min Rain = 0
KGU1 131551Z 21014KT 05/M07 A3006 RMK A01 T00461067  RH  044%=      5-min Rain = 0
KGU1 131552Z 20014KT 04/M07 A3006 RMK A01 T00431071  RH  043%=      5-min Rain = 0
KGU1 131553Z 21015KT 04/M07 A3006 RMK A01 T00401072  RH  044%=      5-min Rain = 0
KGU1 131554Z 20013KT 04/M07 A3006 RMK A01 T00391071  RH  044%=      5-min Rain = 0
KGU1 131555Z 20014KT 04/M07 A3006 RMK A01 T00391071  RH  044%=      5-min Rain = 0
KGU1 131556Z 21014KT 04/M07 A3006 RMK A01 T00371073  RH  044%=      5-min Rain = 0
KGU1 131557Z 21014KT 04/M07 A3006 RMK A01 T00371073  RH  045%=      5-min Rain = 0
KGU1 131558Z 21015KT 04/M07 A3007 RMK A01 T00371072  RH  045%=      5-min Rain = 0
KGU1 131559Z 21013KT 04/M07 A3007 RMK A01 T00371072  RH  045%=      5-min Rain = 0
KGU1 131600Z 21015KT 04/M07 A3006 RMK A01 T00381071  RH  045%=      5-min Rain = 0
KGU1 131601Z 20016KT 04/M07 A3006 RMK A01 T00371073  RH  044%=      5-min Rain = 0
KGU1 131602Z 20015KT 04/M07 A3006 RMK A01 T00381071  RH  045%=      5-min Rain = 0
KGU1 131603Z 20015KT 04/M07 A3006 RMK A01 T00381072  RH  045%=      5-min Rain = 0
KGU1 131604Z 20015KT 04/M07 A3006 RMK A01 T00381071  RH  045%=      5-min Rain = 0
KGU1 131605Z 21014G19KT 04/M07 A3006 RMK A01 T00391070  RH  045%=      5-min Rain = 0
KGU1 131606Z 21014KT 04/M07 A3007 RMK A01 T00391070  RH  045%=      5-min Rain = 0
KGU1 131607Z 21016KT 04/M07 A3007 RMK A01 T00381071  RH  045%=      5-min Rain = 0
KGU1 131608Z 21016KT 04/M07 A3006 RMK A01 T00371071  RH  045%=      5-min Rain = 0
KGU1 131609Z 21016KT 04/M07 A3006 RMK A01 T00381070  RH  045%=      5-min Rain = 0
KGU1 131610Z 20013KT 04/M07 A3006 RMK A01 T00411067  RH  045%=      5-min Rain = 0
KGU1 131611Z 20013KT 05/M06 A3006 RMK A01 T00471063  RH  045%=      5-min Rain = 0
KGU1 131612Z 21012KT 05/M07 A3006 RMK A01 T00491065  RH  043%=      5-min Rain = 0
KGU1 131613Z 23008KT 05/M07 A3006 RMK A01 T00501065  RH  043%=      5-min Rain = 0
KGU1 131614Z 22011G17KT 05/M07 A3006 RMK A01 T00511066  RH  043%=      5-min Rain = 0
KGU1 131615Z 21011KT 05/M07 A3006 RMK A01 T00491066  RH  043%=      5-min Rain = 0
KGU1 131616Z 21012KT 05/M07 A3006 RMK A01 T00511065  RH  043%=      5-min Rain = 0
KGU1 131617Z 20012KT 05/M07 A3006 RMK A01 T00511066  RH  043%=      5-min Rain = 0
KGU1 131618Z 21013KT 05/M07 A3006 RMK A01 T00511065  RH  043%=      5-min Rain = 0
KGU1 131619Z 21015KT 05/M07 A3006 RMK A01 T00521065  RH  043%=      5-min Rain = 0
KGU1 131620Z 20012G17KT 05/M06 A3006 RMK A01 T00531064  RH  043%=      5-min Rain = 0
KGU1 131621Z 20014KT 05/M06 A3006 RMK A01 T00541063  RH  043%=      5-min Rain = 0
KGU1 131622Z 20016KT 05/M06 A3006 RMK A01 T00541064  RH  042%=      5-min Rain = 0
KGU1 131623Z 20015KT 05/M06 A3006 RMK A01 T00541063  RH  043%=      5-min Rain = 0
KGU1 131624Z 20013G18KT 05/M06 A3006 RMK A01 T00541063  RH  043%=      5-min Rain = 0
KGU1 131625Z 20017KT 05/M07 A3006 RMK A01 T00531065  RH  042%=      5-min Rain = 0
KGU1 131626Z 20014KT 05/M06 A3006 RMK A01 T00521064  RH  043%=      5-min Rain = 0
KGU1 131627Z 19013KT 05/M06 A3006 RMK A01 T00531064  RH  043%=      5-min Rain = 0
KGU1 131628Z 20016KT 05/M07 A3006 RMK A01 T00531066  RH  042%=      5-min Rain = 0
KGU1 131629Z 20017KT 05/M07 A3006 RMK A01 T00501068  RH  042%=      5-min Rain = 0
KGU1 131630Z 20014G22KT 05/M07 A3006 RMK A01 T00491066  RH  043%=      5-min Rain = 0
KGU1 131631Z 20015G21KT 05/M06 A3006 RMK A01 T00501064  RH  044%=      5-min Rain = 0
KGU1 131632Z 19014G20KT 05/M06 A3006 RMK A01 T00521062  RH  044%=      5-min Rain = 0
KGU1 131633Z 20013KT 05/M06 A3006 RMK A01 T00511063  RH  043%=      5-min Rain = 0
KGU1 131634Z 21015KT 05/M06 A3006 RMK A01 T00541061  RH  043%=      5-min Rain = 0
KGU1 131635Z 21015KT 06/M06 A3006 RMK A01 T00551060  RH  043%=      5-min Rain = 0
KGU1 131636Z 20014KT 06/M06 A3007 RMK A01 T00561058  RH  044%=      5-min Rain = 0
KGU1 131637Z 20016KT 06/M06 A3006 RMK A01 T00571058  RH  043%=      5-min Rain = 0
KGU1 131638Z 21017KT 06/M06 A3006 RMK A01 T00561059  RH  043%=      5-min Rain = 0
KGU1 131639Z 20014G19KT 06/M06 A3006 RMK A01 T00571059  RH  043%=      5-min Rain = 0
KGU1 131640Z 20014G19KT 06/M06 A3006 RMK A01 T00571059  RH  043%=      5-min Rain = 0
KGU1 131641Z 20014KT 06/M06 A3006 RMK A01 T00601057  RH  043%=      5-min Rain = 0
KGU1 131642Z 20013KT 06/M06 A3006 RMK A01 T00611059  RH  042%=      5-min Rain = 0
KGU1 131643Z 20012G17KT 06/M06 A3006 RMK A01 T00581060  RH  042%=      5-min Rain = 0
KGU1 131644Z 20016KT 06/M06 A3006 RMK A01 T00591059  RH  043%=      5-min Rain = 0
KGU1 131645Z 19012KT 06/M06 A3006 RMK A01 T00591059  RH  042%=      5-min Rain = 0
KGU1 131646Z 20013KT 06/M06 A3006 RMK A01 T00611058  RH  042%=      5-min Rain = 0
KGU1 131647Z 23009KT 06/M06 A3006 RMK A01 T00611057  RH  043%=      5-min Rain = 0
KGU1 131648Z 21011KT 06/M05 A3006 RMK A01 T00641054  RH  043%=      5-min Rain = 0
KGU1 131649Z 20016KT 07/M05 A3006 RMK A01 T00661052  RH  043%=      5-min Rain = 0
KGU1 131650Z 20016KT 07/M05 A3006 RMK A01 T00661053  RH  042%=      5-min Rain = 0
KGU1 131651Z 20011G17KT 07/M05 A3006 RMK A01 T00651054  RH  042%=      5-min Rain = 0
KGU1 131652Z 20011G18KT 07/M06 A3006 RMK A01 T00661056  RH  042%=      5-min Rain = 0
KGU1 131653Z 20013KT 07/M05 A3006 RMK A01 T00661054  RH  042%=      5-min Rain = 0
KGU1 131654Z 20014KT 07/M06 A3006 RMK A01 T00661055  RH  042%=      5-min Rain = 0
KGU1 131655Z 20013KT 07/M06 A3006 RMK A01 T00661055  RH  042%=      5-min Rain = 0
KGU1 131656Z 20017KT 07/M06 A3006 RMK A01 T00671055  RH  041%=      5-min Rain = 0
KGU1 131657Z 20015KT 06/M06 A3006 RMK A01 T00641057  RH  042%=      5-min Rain = 0
KGU1 131658Z 20014KT 06/M06 A3006 RMK A01 T00641055  RH  042%=      5-min Rain = 0
KGU1 131659Z 20013KT 07/M06 A3006 RMK A01 T00651055  RH  042%=      5-min Rain = 0
KGU1 131700Z 20015KT 07/M05 A3006 RMK A01 T00661054  RH  042%=      5-min Rain = 0
KGU1 131701Z 20014KT 07/M05 A3006 RMK A01 T00671053  RH  042%=      5-min Rain = 0
KGU1 131702Z 20015G21KT 07/M05 A3006 RMK A01 T00681053  RH  042%=      5-min Rain = 0
KGU1 131703Z 20014G20KT 07/M06 A3006 RMK A01 T00671055  RH  042%=      5-min Rain = 0
KGU1 131704Z 20014KT 07/M05 A3006 RMK A01 T00671054  RH  042%=      5-min Rain = 0
KGU1 131705Z 20014KT 07/M06 A3006 RMK A01 T00671055  RH  042%=      5-min Rain = 0
KGU1 131706Z 21014KT 07/M05 A3006 RMK A01 T00681053  RH  042%=      5-min Rain = 0
KGU1 131707Z 20017KT 07/M05 A3006 RMK A01 T00691053  RH  042%=      5-min Rain = 0
KGU1 131708Z 20015KT 07/M05 A3006 RMK A01 T00681053  RH  042%=      5-min Rain = 0
KGU1 131709Z 21014KT 07/M05 A3006 RMK A01 T00701051  RH  042%=      5-min Rain = 0
KGU1 131710Z 19013KT 07/M05 A3006 RMK A01 T00711052  RH  041%=      5-min Rain = 0
KGU1 131711Z 20015KT 07/M05 A3006 RMK A01 T00721051  RH  041%=      5-min Rain = 0
KGU1 131712Z 20014KT 07/M05 A3006 RMK A01 T00741049  RH  041%=      5-min Rain = 0
KGU1 131713Z 20013KT 07/M05 A3006 RMK A01 T00741049  RH  041%=      5-min Rain = 0
KGU1 131714Z 19014KT 08/M05 A3006 RMK A01 T00761048  RH  041%=      5-min Rain = 0
KGU1 131715Z 19016KT 08/M05 A3005 RMK A01 T00771049  RH  041%=      5-min Rain = 0
KGU1 131716Z 19013KT 08/M05 A3005 RMK A01 T00761049  RH  041%=      5-min Rain = 0
KGU1 131717Z 19013KT 08/M05 A3005 RMK A01 T00781048  RH  041%=      5-min Rain = 0
KGU1 131718Z 19010KT 08/M05 A3006 RMK A01 T00771049  RH  040%=      5-min Rain = 0
KGU1 131719Z 20012KT 08/M05 A3006 RMK A01 T00811047  RH  040%=      5-min Rain = 0
KGU1 131720Z 20012KT 08/M05 A3006 RMK A01 T00811051  RH  039%=      5-min Rain = 0
KGU1 131721Z 19012G17KT 08/M05 A3005 RMK A01 T00791051  RH  039%=      5-min Rain = 0
KGU1 131722Z 18015KT 08/M05 A3005 RMK A01 T00791051  RH  040%=      5-min Rain = 0
KGU1 131723Z 17010G15KT 08/M05 A3005 RMK A01 T00801047  RH  041%=      5-min Rain = 0
KGU1 131724Z 17010G15KT 09/M04 A3005 RMK A01 T00911040  RH  040%=      5-min Rain = 0
KGU1 131725Z 18014KT 09/M04 A3005 RMK A01 T00931044  RH  038%=      5-min Rain = 0
KGU1 131726Z 18014KT 09/M05 A3005 RMK A01 T00901047  RH  038%=      5-min Rain = 0
KGU1 131727Z 18014G20KT 09/M05 A3005 RMK A01 T00861050  RH  038%=      5-min Rain = 0
KGU1 131728Z 18018G24KT 08/M05 A3004 RMK A01 T00841049  RH  039%=      5-min Rain = 0
KGU1 131729Z 19017KT 08/M05 A3005 RMK A01 T00821049  RH  039%=      5-min Rain = 0
KGU1 131730Z 18011G16KT 08/M05 A3005 RMK A01 T00821048  RH  040%=      5-min Rain = 0
KGU1 131731Z 18012KT 08/M05 A3005 RMK A01 T00841046  RH  040%=      5-min Rain = 0
KGU1 131732Z 19014KT 09/M04 A3004 RMK A01 T00911044  RH  038%=      5-min Rain = 0
KGU1 131733Z 18015KT 09/M05 A3004 RMK A01 T00921045  RH  038%=      5-min Rain = 0
KGU1 131734Z 19014KT 09/M05 A3005 RMK A01 T00931045  RH  037%=      5-min Rain = 0
KGU1 131735Z 18015KT 09/M05 A3004 RMK A01 T00911048  RH  037%=      5-min Rain = 0
KGU1 131736Z 17005G10KT 09/M05 A3005 RMK A01 T00861050  RH  038%=      5-min Rain = 0
KGU1 131737Z 19014G19KT 09/M05 A3005 RMK A01 T00861048  RH  038%=      5-min Rain = 0
KGU1 131738Z 18014KT 09/M05 A3005 RMK A01 T00861048  RH  038%=      5-min Rain = 0
KGU1 131739Z 17017KT 09/M05 A3003 RMK A01 T00851050  RH  038%=      5-min Rain = 0
KGU1 131740Z 18017KT 08/M05 A3003 RMK A01 T00841049  RH  039%=      5-min Rain = 0
KGU1 131741Z 19013KT 08/M05 A3004 RMK A01 T00831049  RH  039%=      5-min Rain = 0
KGU1 131742Z 21015KT 09/M05 A3004 RMK A01 T00851045  RH  039%=      5-min Rain = 0
KGU1 131743Z 20013G18KT 09/M04 A3004 RMK A01 T00881044  RH  039%=      5-min Rain = 0
KGU1 131744Z 19018KT 09/M05 A3004 RMK A01 T00901046  RH  038%=      5-min Rain = 0
KGU1 131745Z 20015KT 09/M05 A3004 RMK A01 T00871047  RH  039%=      5-min Rain = 0
KGU1 131746Z 19012G17KT 09/M05 A3004 RMK A01 T00861047  RH  039%=      5-min Rain = 0
KGU1 131747Z 19014KT 09/M05 A3004 RMK A01 T00861048  RH  039%=      5-min Rain = 0
KGU1 131748Z 19011KT 08/M05 A3004 RMK A01 T00841049  RH  039%=      5-min Rain = 0
KGU1 131749Z 19014KT 09/M05 A3004 RMK A01 T00871046  RH  039%=      5-min Rain = 0
KGU1 131750Z 18018KT 09/M05 A3004 RMK A01 T00881047  RH  038%=      5-min Rain = 0
KGU1 131751Z 18018G23KT 08/M05 A3003 RMK A01 T00831050  RH  039%=      5-min Rain = 0
KGU1 131752Z 19015G22KT 08/M05 A3004 RMK A01 T00821047  RH  040%=      5-min Rain = 0
KGU1 131753Z 19013G18KT 08/M05 A3003 RMK A01 T00841046  RH  040%=      5-min Rain = 0
KGU1 131754Z 19015G20KT 09/M04 A3003 RMK A01 T00901043  RH  039%=      5-min Rain = 0
KGU1 131755Z 18015KT 09/M04 A3003 RMK A01 T00911044  RH  038%=      5-min Rain = 0
KGU1 131756Z 19014G20KT 09/M05 A3004 RMK A01 T00921046  RH  038%=      5-min Rain = 0
KGU1 131757Z 18019KT 09/M05 A3003 RMK A01 T00881048  RH  038%=      5-min Rain = 0
KGU1 131758Z 18019G24KT 09/M05 A3003 RMK A01 T00851047  RH  039%=      5-min Rain = 0
KGU1 131759Z 19017KT 08/M05 A3003 RMK A01 T00841047  RH  039%=      5-min Rain = 0
KGU1 131800Z 20015G21KT 08/M05 A3003 RMK A01 T00811049  RH  039%=      5-min Rain = 0
KGU1 131801Z 19014G21KT 08/M05 A3003 RMK A01 T00801049  RH  040%=      5-min Rain = 0
KGU1 131802Z 19019G24KT 08/M05 A3003 RMK A01 T00781051  RH  040%=      5-min Rain = 0
KGU1 131803Z 19018KT 08/M05 A3003 RMK A01 T00771051  RH  040%=      5-min Rain = 0
KGU1 131804Z 19011G20KT 08/M05 A3003 RMK A01 T00771050  RH  040%=      5-min Rain = 0
KGU1 131805Z 19012G22KT 08/M05 A3003 RMK A01 T00801046  RH  041%=      5-min Rain = 0
KGU1 131806Z 19019G24KT 08/M05 A3003 RMK A01 T00821047  RH  040%=      5-min Rain = 0
KGU1 131807Z 19012G18KT 08/M05 A3003 RMK A01 T00831046  RH  040%=      5-min Rain = 0
KGU1 131808Z 18012G19KT 09/M04 A3003 RMK A01 T00861043  RH  040%=      5-min Rain = 0
KGU1 131809Z 20012KT 09/M05 A3003 RMK A01 T00881046  RH  039%=      5-min Rain = 0
KGU1 131810Z 19016G21KT 09/M05 A3002 RMK A01 T00881045  RH  039%=      5-min Rain = 0
KGU1 131811Z 19013KT 09/M04 A3003 RMK A01 T00881044  RH  039%=      5-min Rain = 0
KGU1 131812Z 20015KT 09/M04 A3003 RMK A01 T00901043  RH  039%=      5-min Rain = 0
KGU1 131813Z 18011G16KT 09/M04 A3003 RMK A01 T00901044  RH  039%=      5-min Rain = 0
KGU1 131814Z 19010KT 09/M05 A3003 RMK A01 T00891046  RH  038%=      5-min Rain = 0
KGU1 131815Z 21008G13KT 09/M04 A3003 RMK A01 T00911043  RH  039%=      5-min Rain = 0
KGU1 131816Z 18009G14KT 09/M04 A3003 RMK A01 T00941040  RH  039%=      5-min Rain = 0
KGU1 131817Z 18014G19KT 10/M04 A3002 RMK A01 T00961041  RH  038%=      5-min Rain = 0
KGU1 131818Z 17014KT 09/M05 A3002 RMK A01 T00921046  RH  038%=      5-min Rain = 0
KGU1 131819Z 18013G18KT 09/M04 A3003 RMK A01 T00921043  RH  039%=      5-min Rain = 0
KGU1 131820Z 19008KT 09/M04 A3003 RMK A01 T00931042  RH  038%=      5-min Rain = 0
KGU1 131821Z 18010G15KT 10/M04 A3003 RMK A01 T00961041  RH  038%=      5-min Rain = 0
KGU1 131822Z 18017KT 10/M05 A3002 RMK A01 T00951045  RH  037%=      5-min Rain = 0
KGU1 131823Z 19017KT 09/M05 A3002 RMK A01 T00911046  RH  038%=      5-min Rain = 0
KGU1 131824Z 19011KT 09/M05 A3003 RMK A01 T00891046  RH  038%=      5-min Rain = 0
KGU1 131825Z 17013G20KT 09/M04 A3002 RMK A01 T00911043  RH  039%=      5-min Rain = 0
KGU1 131826Z 20016G22KT 09/M04 A3002 RMK A01 T00941042  RH  038%=      5-min Rain = 0
KGU1 131827Z 19016KT 10/M04 A3002 RMK A01 T00961044  RH  037%=      5-min Rain = 0
KGU1 131828Z 19011KT 10/M04 A3002 RMK A01 T00961044  RH  037%=      5-min Rain = 0
KGU1 131829Z 23005KT 10/M04 A3002 RMK A01 T01001041  RH  037%=      5-min Rain = 0
KGU1 131830Z 19008G14KT 11/M04 A3002 RMK A01 T01051040  RH  036%=      5-min Rain = 0
KGU1 131831Z 21013G19KT 11/M04 A3001 RMK A01 T01091039  RH  035%=      5-min Rain = 0
KGU1 131832Z 22011G17KT 11/M04 A3001 RMK A01 T01111040  RH  034%=      5-min Rain = 0
KGU1 131833Z 20015G21KT 11/M04 A3001 RMK A01 T01101042  RH  034%=      5-min Rain = 0
KGU1 131834Z 20016G21KT 11/M04 A3001 RMK A01 T01071043  RH  035%=      5-min Rain = 0
KGU1 131835Z 20016KT 10/M04 A3002 RMK A01 T01011044  RH  036%=      5-min Rain = 0
KGU1 131836Z 20015KT 10/M04 A3001 RMK A01 T01001041  RH  037%=      5-min Rain = 0
KGU1 131837Z 19017G25KT 10/M04 A3001 RMK A01 T01041040  RH  036%=      5-min Rain = 0
KGU1 131838Z 20017KT 11/M04 A3001 RMK A01 T01061039  RH  036%=      5-min Rain = 0
KGU1 131839Z 21013KT 11/M04 A3001 RMK A01 T01081039  RH  036%=      5-min Rain = 0
KGU1 131840Z 20011G17KT 11/M04 A3001 RMK A01 T01081037  RH  036%=      5-min Rain = 0
KGU1 131841Z 19013G20KT 11/M04 A3001 RMK A01 T01091037  RH  036%=      5-min Rain = 0
KGU1 131842Z 18016KT 11/M04 A3001 RMK A01 T01131038  RH  035%=      5-min Rain = 0
KGU1 131843Z 20014KT 11/M04 A3001 RMK A01 T01121039  RH  035%=      5-min Rain = 0
KGU1 131844Z 20012KT 11/M04 A3002 RMK A01 T01091039  RH  036%=      5-min Rain = 0
KGU1 131845Z 21010KT 11/M04 A3002 RMK A01 T01101035  RH  036%=      5-min Rain = 0
KGU1 131846Z 20015KT 11/M04 A3001 RMK A01 T01121035  RH  036%=      5-min Rain = 0
KGU1 131847Z 20016G23KT 11/M04 A3001 RMK A01 T01101036  RH  036%=      5-min Rain = 0
KGU1 131848Z 19014KT 11/M04 A3001 RMK A01 T01071036  RH  037%=      5-min Rain = 0
KGU1 131849Z 21011KT 11/M04 A3001 RMK A01 T01061035  RH  037%=      5-min Rain = 0
KGU1 131850Z 21010G18KT 11/M03 A3001 RMK A01 T01111034  RH  036%=      5-min Rain = 0
KGU1 131851Z 20017G24KT 11/M04 A3001 RMK A01 T01131037  RH  035%=      5-min Rain = 0
KGU1 131852Z 19017KT 11/M04 A30 RMK A01 T01091038  RH  036%=      5-min Rain = 0
KGU1 131853Z 21017KT 11/M04 A3001 RMK A01 T01061037  RH  037%=      5-min Rain = 0
KGU1 131854Z 19015G21KT 11/M04 A3001 RMK A01 T01061037  RH  036%=      5-min Rain = 0
KGU1 131855Z 21017G22KT 11/M04 A3001 RMK A01 T01071037  RH  036%=      5-min Rain = 0
KGU1 131856Z 20012G17KT 10/M04 A3001 RMK A01 T01041037  RH  037%=      5-min Rain = 0
KGU1 131857Z 20014G20KT 11/M04 A30 RMK A01 T01061038  RH  036%=      5-min Rain = 0
KGU1 131858Z 21011KT 12/M04 A3001 RMK A01 T01191043  RH  032%=      5-min Rain = 0
KGU1 131859Z 19012KT 12/M04 A3001 RMK A01 T01181039  RH  033%=      5-min Rain = 0
KGU1 131900Z 20013G19KT 11/M04 A30 RMK A01 T01141037  RH  035%=      5-min Rain = 0
KGU1 131901Z 20011G22KT 11/M04 A30 RMK A01 T01141037  RH  035%=      5-min Rain = 0
KGU1 131902Z 24008KT 11/M03 A30 RMK A01 T01121034  RH  036%=      5-min Rain = 0
KGU1 131903Z 25010G16KT 12/M04 A3001 RMK A01 T01151039  RH  034%=      5-min Rain = 0
KGU1 131904Z 21008G14KT 12/M04 A3001 RMK A01 T01171040  RH  033%=      5-min Rain = 0
KGU1 131905Z 20016G23KT 11/M04 A30 RMK A01 T01141035  RH  035%=      5-min Rain = 0
KGU1 131906Z 20013G19KT 11/M04 A30 RMK A01 T01101036  RH  036%=      5-min Rain = 0
KGU1 131907Z 23008KT 12/M04 A30 RMK A01 T01151041  RH  033%=      5-min Rain = 0
KGU1 131908Z 21009G20KT 13/M05 A30 RMK A01 T01301050  RH  028%=      5-min Rain = 0
KGU1 131909Z 30005G12KT 14/M05 A30 RMK A01 T01351052  RH  027%=      5-min Rain = 0
KGU1 131910Z 29009G17KT 15/M07 A30 RMK A01 T01531066  RH  022%=      5-min Rain = 0
KGU1 131911Z 25011G16KT 17/M07 A30 RMK A01 T01701065  RH  019%=      5-min Rain = 0
KGU1 131912Z 20010G17KT 16/M05 A30 RMK A01 T01611047  RH  024%=      5-min Rain = 0
KGU1 131913Z 16007KT 14/M04 A30 RMK A01 T01381043  RH  028%=      5-min Rain = 0
KGU1 131914Z 22013G18KT 13/M04 A30 RMK A01 T01261038  RH  032%=      5-min Rain = 0
KGU1 131915Z 20013G20KT 12/M04 A30 RMK A01 T01181039  RH  033%=      5-min Rain = 0
KGU1 131916Z 22010G17KT 11/M04 A30 RMK A01 T01141038  RH  034%=      5-min Rain = 0
KGU1 131917Z 22009KT 12/M04 A30 RMK A01 T01161040  RH  034%=      5-min Rain = 0
KGU1 131918Z 21012G21KT 11/M04 A30 RMK A01 T01131038  RH  035%=      5-min Rain = 0
KGU1 131919Z 20014G20KT 11/M04 A30 RMK A01 T01111036  RH  036%=      5-min Rain = 0
KGU1 131920Z 22013G18KT 11/M04 A30 RMK A01 T01111037  RH  036%=      5-min Rain = 0
KGU1 131921Z 22010KT 11/M04 A30 RMK A01 T01101036  RH  036%=      5-min Rain = 0
KGU1 131922Z 20020G25KT 11/M03 A2999 RMK A01 T01081034  RH  037%=      5-min Rain = 0
KGU1 131923Z 19019G25KT 11/M04 A2999 RMK A01 T01051036  RH  037%=      5-min Rain = 0
KGU1 131924Z 20020KT 11/M04 A2999 RMK A01 T01071037  RH  037%=      5-min Rain = 0
KGU1 131925Z 19021KT 11/M04 A2999 RMK A01 T01071036  RH  037%=      5-min Rain = 0
KGU1 131926Z 20018KT 11/M04 A2999 RMK A01 T01051035  RH  037%=      5-min Rain = 0
KGU1 131927Z 21023G29KT 11/M04 A2999 RMK A01 T01051037  RH  037%=      5-min Rain = 0
KGU1 131928Z 21015G20KT 10/M04 A2999 RMK A01 T01011037  RH  038%=      5-min Rain = 0
KGU1 131929Z 20015KT 10/M04 A2999 RMK A01 T01021037  RH  038%=      5-min Rain = 0
KGU1 131930Z 19017KT 11/M04 A2999 RMK A01 T01061038  RH  036%=      5-min Rain = 0
KGU1 131931Z 20017KT 11/M04 A2998 RMK A01 T01101038  RH  035%=      5-min Rain = 0
KGU1 131932Z 20016KT 11/M04 A2999 RMK A01 T01121037  RH  035%=      5-min Rain = 0
KGU1 131933Z 21015G22KT 11/M04 A2999 RMK A01 T01121037  RH  035%=      5-min Rain = 0
KGU1 131934Z 20013KT 11/M04 A2999 RMK A01 T01121037  RH  035%=      5-min Rain = 0
KGU1 131935Z 20021KT 11/M04 A2998 RMK A01 T01141040  RH  034%=      5-min Rain = 0
KGU1 131936Z 20016G21KT 11/M04 A2998 RMK A01 T01081037  RH  036%=      5-min Rain = 0
KGU1 131937Z 20019G24KT 11/M04 A2998 RMK A01 T01091038  RH  036%=      5-min Rain = 0
KGU1 131938Z 21018G26KT 11/M04 A2998 RMK A01 T01091038  RH  036%=      5-min Rain = 0
KGU1 131939Z 22016G24KT 11/M04 A2998 RMK A01 T01081037  RH  036%=      5-min Rain = 0
KGU1 131940Z 19021G32KT 11/M04 A2997 RMK A01 T01091037  RH  036%=      5-min Rain = 0
KGU1 131941Z 19024KT 11/M04 A2996 RMK A01 T01081038  RH  036%=      5-min Rain = 0
KGU1 131942Z 18024KT 11/M04 A2996 RMK A01 T01061036  RH  037%=      5-min Rain = 0
KGU1 131943Z 19017G26KT 11/M03 A2997 RMK A01 T01071033  RH  037%=      5-min Rain = 0
KGU1 131944Z 20016G22KT 11/M04 A2998 RMK A01 T01091036  RH  036%=      5-min Rain = 0
KGU1 131945Z 20015G21KT 11/M04 A2998 RMK A01 T01121038  RH  035%=      5-min Rain = 0
KGU1 131946Z 19021G29KT 11/M04 A2996 RMK A01 T01131035  RH  035%=      5-min Rain = 0
KGU1 131947Z 19022G28KT 11/M04 A2996 RMK A01 T01121037  RH  035%=      5-min Rain = 0
KGU1 131948Z 18019G24KT 11/M04 A2997 RMK A01 T01101036  RH  036%=      5-min Rain = 0
KGU1 131949Z 18020G29KT 11/M04 A2997 RMK A01 T01121035  RH  036%=      5-min Rain = 0
KGU1 131950Z 20018G23KT 12/M04 A2997 RMK A01 T01151043  RH  033%=      5-min Rain = 0
KGU1 131951Z 20018G26KT 12/M04 A2998 RMK A01 T01151039  RH  034%=      5-min Rain = 0
KGU1 131952Z 22011G17KT 11/M04 A2998 RMK A01 T01131035  RH  035%=      5-min Rain = 0
KGU1 131953Z 21011G17KT 12/M04 A2998 RMK A01 T01161038  RH  034%=      5-min Rain = 0
KGU1 131954Z 20007G14KT 12/M04 A2999 RMK A01 T01211037  RH  033%=      5-min Rain = 0
KGU1 131955Z 19013G21KT 12/M03 A2998 RMK A01 T01211034  RH  034%=      5-min Rain = 0
KGU1 131956Z 18016KT 12/M04 A2998 RMK A01 T01171035  RH  034%=      5-min Rain = 0
KGU1 131957Z 20013G20KT 11/M03 A2998 RMK A01 T01141033  RH  036%=      5-min Rain = 0
KGU1 131958Z 18014G20KT 11/M04 A2998 RMK A01 T01131035  RH  035%=      5-min Rain = 0
KGU1 131959Z 18014KT 12/M04 A2998 RMK A01 T01151036  RH  035%=      5-min Rain = 0
KGU1 132000Z 18011G16KT 12/M04 A2998 RMK A01 T01181038  RH  033%=      5-min Rain = 0
KGU1 132001Z 18016KT 12/M04 A2998 RMK A01 T01201038  RH  033%=      5-min Rain = 0
KGU1 132002Z 17021KT 12/M04 A2998 RMK A01 T01181037  RH  034%=      5-min Rain = 0
KGU1 132003Z 18014G22KT 11/M03 A2998 RMK A01 T01131034  RH  036%=      5-min Rain = 0
KGU1 132004Z 18015KT 11/M04 A2998 RMK A01 T01131037  RH  035%=      5-min Rain = 0
KGU1 132005Z 19016G21KT 12/M04 A2998 RMK A01 T01171041  RH  033%=      5-min Rain = 0
KGU1 132006Z 19019KT 11/M04 A2998 RMK A01 T01131038  RH  035%=      5-min Rain = 0
KGU1 132007Z 18015G21KT 11/M04 A2997 RMK A01 T01081038  RH  036%=      5-min Rain = 0
KGU1 132008Z 19014G21KT 11/M04 A2998 RMK A01 T01081038  RH  036%=      5-min Rain = 0
KGU1 132009Z 19018KT 11/M04 A2998 RMK A01 T01081039  RH  036%=      5-min Rain = 0
KGU1 132010Z 20015G20KT 11/M04 A2998 RMK A01 T01091041  RH  035%=      5-min Rain = 0
KGU1 132011Z 19013KT 11/M04 A2998 RMK A01 T01101042  RH  034%=      5-min Rain = 0
KGU1 132012Z 19015KT 11/M04 A2998 RMK A01 T01121041  RH  034%=      5-min Rain = 0
KGU1 132013Z 19013KT 11/M04 A2998 RMK A01 T01091042  RH  034%=      5-min Rain = 0
KGU1 132014Z 20015KT 11/M04 A2998 RMK A01 T01071041  RH  035%=      5-min Rain = 0
KGU1 132015Z 21014KT 11/M04 A2998 RMK A01 T01081043  RH  035%=      5-min Rain = 0
KGU1 132016Z 19016KT 11/M04 A2997 RMK A01 T01071042  RH  035%=      5-min Rain = 0
KGU1 132017Z 18016KT 11/M04 A2997 RMK A01 T01051043  RH  035%=      5-min Rain = 0
KGU1 132018Z 20014KT 11/M04 A2997 RMK A01 T01061043  RH  035%=      5-min Rain = 0
KGU1 132019Z 21015G20KT 11/M05 A2997 RMK A01 T01081047  RH  034%=      5-min Rain = 0
KGU1 132020Z 23009KT 11/M05 A2997 RMK A01 T01101049  RH  033%=      5-min Rain = 0
KGU1 132021Z 19012KT 11/M05 A2997 RMK A01 T01101045  RH  034%=      5-min Rain = 0
KGU1 132022Z 19013KT 11/M05 A2997 RMK A01 T01111047  RH  033%=      5-min Rain = 0
KGU1 132023Z 20008KT 11/M05 A2997 RMK A01 T01141052  RH  031%=      5-min Rain = 0
KGU1 132024Z 20009KT 12/M05 A2997 RMK A01 T01161046  RH  032%=      5-min Rain = 0
KGU1 132025Z 19008G13KT 12/M05 A2997 RMK A01 T01171047  RH  032%=      5-min Rain = 0
KGU1 132026Z 19007KT 12/M05 A2997 RMK A01 T01201050  RH  030%=      5-min Rain = 0
KGU1 132027Z 19008KT 13/M05 A2998 RMK A01 T01251050  RH  029%=      5-min Rain = 0
KGU1 132028Z 19012KT 13/M05 A2997 RMK A01 T01251048  RH  030%=      5-min Rain = 0
KGU1 132029Z 18010KT 13/M06 A2997 RMK A01 T01261064  RH  026%=      5-min Rain = 0
KGU1 132030Z 18011KT 13/M05 A2997 RMK A01 T01281050  RH  029%=      5-min Rain = 0
KGU1 132031Z 18009KT 13/M05 A2997 RMK A01 T01281050  RH  029%=      5-min Rain = 0
KGU1 132032Z 22010G16KT 13/M05 A2998 RMK A01 T01281047  RH  029%=      5-min Rain = 0
KGU1 132033Z 20012KT 13/M05 A2997 RMK A01 T01271047  RH  029%=      5-min Rain = 0
KGU1 132034Z 19014KT 13/M05 A2997 RMK A01 T01261053  RH  028%=      5-min Rain = 0
KGU1 132035Z 19013KT 13/M06 A2997 RMK A01 T01271055  RH  028%=      5-min Rain = 0
KGU1 132036Z 20012KT 13/M05 A2997 RMK A01 T01301053  RH  027%=      5-min Rain = 0
KGU1 132037Z 20017G24KT 13/M05 A2997 RMK A01 T01311053  RH  027%=      5-min Rain = 0
KGU1 132038Z 18016G21KT 13/M05 A2996 RMK A01 T01291049  RH  029%=      5-min Rain = 0
KGU1 132039Z 21012KT 13/M05 A2997 RMK A01 T01291050  RH  028%=      5-min Rain = 0
KGU1 132040Z 21013G20KT 13/M05 A2997 RMK A01 T01311053  RH  028%=      5-min Rain = 0
KGU1 132041Z 23013G21KT 14/M08 A2996 RMK A01 T01351077  RH  022%=      5-min Rain = 0
KGU1 132042Z 27016G23KT 15/M12 A2996 RMK A01 T01491116  RH  015%=      5-min Rain = 0
KGU1 132043Z 29013G22KT 16/M12 A2997 RMK A01 T01621123  RH  013%=      5-min Rain = 0
KGU1 132044Z 22012KT 17/M10 A2997 RMK A01 T01681103  RH  015%=      5-min Rain = 0
KGU1 132045Z 22012KT 16/M07 A2996 RMK A01 T01581071  RH  020%=      5-min Rain = 0
KGU1 132046Z 25011G19KT 15/M09 A2996 RMK A01 T01541087  RH  018%=      5-min Rain = 0
KGU1 132047Z 27012G19KT 16/M11 A2996 RMK A01 T01591105  RH  015%=      5-min Rain = 0
KGU1 132048Z 29019G26KT 17/M12 A2997 RMK A01 T01671117  RH  013%=      5-min Rain = 0
KGU1 132049Z 27011G21KT 17/M11 A2997 RMK A01 T01711107  RH  014%=      5-min Rain = 0
KGU1 132050Z 27009G26KT 17/M10 A2997 RMK A01 T01721101  RH  014%=      5-min Rain = 0
KGU1 132051Z 17013G23KT 17/M07 A2996 RMK A01 T01661074  RH  019%=      5-min Rain = 0
KGU1 132052Z 22018G24KT 16/M08 A2996 RMK A01 T01581078  RH  019%=      5-min Rain = 0
KGU1 132053Z 22013G20KT 16/M11 A2996 RMK A01 T01591108  RH  015%=      5-min Rain = 0
KGU1 132054Z 22009G17KT 16/M09 A2996 RMK A01 T01581087  RH  018%=      5-min Rain = 0
KGU1 132055Z 16008G15KT 16/M09 A2996 RMK A01 T01561086  RH  018%=      5-min Rain = 0
KGU1 132056Z 21013KT 15/M06 A2996 RMK A01 T01531063  RH  022%=      5-min Rain = 0
KGU1 132057Z 21012KT 15/M06 A2996 RMK A01 T01481057  RH  024%=      5-min Rain = 0
KGU1 132058Z 22013G21KT 15/M06 A2996 RMK A01 T01471064  RH  023%=      5-min Rain = 0
KGU1 132059Z 25012G17KT 16/M09 A2996 RMK A01 T01561093  RH  017%=      5-min Rain = 0
KGU1 132100Z 26011G16KT 17/M11 A2996 RMK A01 T01651107  RH  014%=      5-min Rain = 0
KGU1 132101Z 26012G20KT 17/M11 A2996 RMK A01 T01731109  RH  013%=      5-min Rain = 0
KGU1 132102Z 27015G20KT 18/M11 A2995 RMK A01 T01771113  RH  013%=      5-min Rain = 0
KGU1 132103Z 28019G24KT 18/M11 A2995 RMK A01 T01781111  RH  013%=      5-min Rain = 0
KGU1 132104Z 27020KT 18/M12 A2995 RMK A01 T01791115  RH  012%=      5-min Rain = 0
KGU1 132105Z 27022G28KT 18/M12 A2994 RMK A01 T01791117  RH  012%=      5-min Rain = 0
KGU1 132106Z 27018G23KT 18/M12 A2995 RMK A01 T01791117  RH  012%=      5-min Rain = 0
KGU1 132107Z 27018KT 18/M11 A2995 RMK A01 T01791111  RH  013%=      5-min Rain = 0
KGU1 132108Z 28015G21KT 18/M11 A2995 RMK A01 T01781105  RH  013%=      5-min Rain = 0
KGU1 132109Z 29020KT 18/M10 A2995 RMK A01 T01791103  RH  014%=      5-min Rain = 0
KGU1 132110Z 29016G22KT 18/M10 A2995 RMK A01 T01791102  RH  014%=      5-min Rain = 0
KGU1 132111Z 29022G27KT 18/M11 A2995 RMK A01 T01781108  RH  013%=      5-min Rain = 0
KGU1 132112Z 29014G20KT 18/M11 A2995 RMK A01 T01761105  RH  014%=      5-min Rain = 0
KGU1 132113Z 28020KT 18/M11 A2995 RMK A01 T01771107  RH  013%=      5-min Rain = 0
KGU1 132114Z 28018KT 18/M11 A2995 RMK A01 T01781113  RH  013%=      5-min Rain = 0
KGU1 132115Z 28021G27KT 18/M10 A2995 RMK A01 T01781102  RH  014%=      5-min Rain = 0
KGU1 132116Z 29023G28KT 18/M10 A2995 RMK A01 T01751103  RH  014%=      5-min Rain = 0
KGU1 132117Z 28020G26KT 17/M10 A2995 RMK A01 T01731101  RH  014%=      5-min Rain = 0
KGU1 132118Z 28020KT 17/M10 A2995 RMK A01 T01721102  RH  014%=      5-min Rain = 0
KGU1 132119Z 28020G25KT 17/M10 A2995 RMK A01 T01721104  RH  014%=      5-min Rain = 0
KGU1 132120Z 29022G27KT 17/M10 A2994 RMK A01 T01721102  RH  014%=      5-min Rain = 0
KGU1 132121Z 29018KT 17/M10 A2995 RMK A01 T01721102  RH  014%=      5-min Rain = 0
KGU1 132122Z 29020KT 17/M10 A2994 RMK A01 T01741102  RH  014%=      5-min Rain = 0
KGU1 132123Z 29022G27KT 18/M11 A2994 RMK A01 T01751105  RH  014%=      5-min Rain = 0
KGU1 132124Z 29019KT 18/M11 A2994 RMK A01 T01761110  RH  013%=      5-min Rain = 0
KGU1 132125Z 30021KT 18/M12 A2994 RMK A01 T01781117  RH  012%=      5-min Rain = 0
KGU1 132126Z 29022KT 18/M12 A2994 RMK A01 T01791115  RH  012%=      5-min Rain = 0
KGU1 132127Z 30020G25KT 18/M11 A2994 RMK A01 T01791113  RH  013%=      5-min Rain = 0
KGU1 132128Z 29019KT 18/M11 A2994 RMK A01 T01811110  RH  013%=      5-min Rain = 0
KGU1 132129Z 30019KT 18/M11 A2994 RMK A01 T01811111  RH  013%=      5-min Rain = 0
KGU1 132130Z 30022KT 18/M12 A2994 RMK A01 T01831117  RH  012%=      5-min Rain = 0
KGU1 132131Z 30016G23KT 18/M12 A2994 RMK A01 T01831118  RH  012%=      5-min Rain = 0
KGU1 132132Z 31015G22KT 18/M11 A2994 RMK A01 T01841113  RH  012%=      5-min Rain = 0
KGU1 132133Z 30017G24KT 19/M13 A2994 RMK A01 T01861132  RH  010%=      5-min Rain = 0
KGU1 132134Z 30011G16KT 19/M12 A2994 RMK A01 T01881121  RH  011%=      5-min Rain = 0
KGU1 132135Z 30015G20KT 19/M12 A2994 RMK A01 T01891119  RH  011%=      5-min Rain = 0
KGU1 132136Z 30019G24KT 19/M13 A2994 RMK A01 T01891128  RH  010%=      5-min Rain = 0
KGU1 132137Z 29015KT 19/M13 A2994 RMK A01 T01881125  RH  011%=      5-min Rain = 0
KGU1 132138Z 29016KT 19/M12 A2994 RMK A01 T01871118  RH  011%=      5-min Rain = 0
KGU1 132139Z 29019KT 19/M13 A2994 RMK A01 T01871126  RH  011%=      5-min Rain = 0
KGU1 132140Z 30017G22KT 19/M13 A2994 RMK A01 T01881127  RH  011%=      5-min Rain = 0
KGU1 132141Z 28016G22KT 19/M12 A2994 RMK A01 T01881118  RH  011%=      5-min Rain = 0
KGU1 132142Z 29016KT 19/M12 A2994 RMK A01 T01881122  RH  011%=      5-min Rain = 0
KGU1 132143Z 28013KT 19/M12 A2994 RMK A01 T01881115  RH  012%=      5-min Rain = 0
KGU1 132144Z 29014KT 19/M12 A2994 RMK A01 T01891118  RH  011%=      5-min Rain = 0
KGU1 132145Z 29016G21KT 19/M12 A2994 RMK A01 T01891119  RH  011%=      5-min Rain = 0
KGU1 132146Z 28016KT 19/M12 A2994 RMK A01 T01881119  RH  011%=      5-min Rain = 0
KGU1 132147Z 28017KT 19/M12 A2994 RMK A01 T01861117  RH  012%=      5-min Rain = 0
KGU1 132148Z 29017KT 19/M12 A2994 RMK A01 T01851119  RH  012%=      5-min Rain = 0
KGU1 132149Z 28016KT 19/M12 A2994 RMK A01 T01861115  RH  012%=      5-min Rain = 0
KGU1 132150Z 28015KT 19/M12 A2994 RMK A01 T01871118  RH  011%=      5-min Rain = 0
KGU1 132151Z 28012KT 19/M12 A2994 RMK A01 T01891119  RH  011%=      5-min Rain = 0
KGU1 132152Z 29016G21KT 19/M13 A2994 RMK A01 T01901125  RH  011%=      5-min Rain = 0
KGU1 132153Z 28016KT 19/M14 A2994 RMK A01 T01911136  RH  010%=      5-min Rain = 0
KGU1 132154Z 29014G19KT 19/M13 A2994 RMK A01 T01931127  RH  010%=      5-min Rain = 0
KGU1 132155Z 29015KT 19/M13 A2994 RMK A01 T01931130  RH  010%=      5-min Rain = 0
KGU1 132156Z 30018KT 19/M13 A2995 RMK A01 T01921131  RH  010%=      5-min Rain = 0
KGU1 132157Z 29017KT 19/M13 A2994 RMK A01 T01901131  RH  010%=      5-min Rain = 0
KGU1 132158Z 29013G18KT 19/M12 A2994 RMK A01 T01901123  RH  011%=      5-min Rain = 0
KGU1 132159Z 29012G17KT 19/M13 A2995 RMK A01 T01911126  RH  010%=      5-min Rain = 0
KGU1 132200Z 29010KT 19/M12 A2995 RMK A01 T01921123  RH  011%=      5-min Rain = 0
KGU1 132201Z 28005KT 19/M12 A2995 RMK A01 T01941123  RH  011%=      5-min Rain = 0
KGU1 132202Z 27003KT 20/M11 A2995 RMK A01 T01961108  RH  012%=      5-min Rain = 0
KGU1 132203Z 30008G13KT 20/M12 A2995 RMK A01 T01971118  RH  011%=      5-min Rain = 0
KGU1 132204Z 35006KT 20/M11 A2994 RMK A01 T01961110  RH  012%=      5-min Rain = 0
KGU1 132205Z 33007KT 19/M09 A2995 RMK A01 T01891086  RH  015%=      5-min Rain = 0
KGU1 132206Z 28005G15KT 18/M09 A2995 RMK A01 T01821090  RH  015%=      5-min Rain = 0
KGU1 132207Z 28010G18KT 18/M11 A2994 RMK A01 T01841110  RH  012%=      5-min Rain = 0
KGU1 132208Z 04004KT 19/M10 A2995 RMK A01 T01861097  RH  014%=      5-min Rain = 0
KGU1 132209Z 19009G16KT 19/M09 A2995 RMK A01 T01861094  RH  014%=      5-min Rain = 0
KGU1 132210Z 19015KT 18/M07 A2995 RMK A01 T01761071  RH  018%=      5-min Rain = 0
KGU1 132211Z 18010G17KT 17/M07 A2995 RMK A01 T01661068  RH  020%=      5-min Rain = 0
KGU1 132212Z 18010KT 16/M07 A2995 RMK A01 T01611065  RH  021%=      5-min Rain = 0
KGU1 132213Z 18012KT 16/M07 A2995 RMK A01 T01581069  RH  020%=      5-min Rain = 0
KGU1 132214Z 17013KT 16/M07 A2995 RMK A01 T01591070  RH  020%=      5-min Rain = 0
KGU1 132215Z 18013KT 16/M07 A2995 RMK A01 T01591069  RH  020%=      5-min Rain = 0
KGU1 132216Z 19014G22KT 16/M06 A2995 RMK A01 T01561064  RH  022%=      5-min Rain = 0
KGU1 132217Z 19014KT 15/M07 A2995 RMK A01 T01531065  RH  022%=      5-min Rain = 0
KGU1 132218Z 18014G19KT 15/M07 A2995 RMK A01 T01511068  RH  022%=      5-min Rain = 0
KGU1 132219Z 18014KT 15/M07 A2995 RMK A01 T01511069  RH  021%=      5-min Rain = 0
KGU1 132220Z 19012KT 15/M07 A2995 RMK A01 T01491067  RH  022%=      5-min Rain = 0
KGU1 132221Z 19007KT 15/M07 A2995 RMK A01 T01491066  RH  022%=      5-min Rain = 0
KGU1 132222Z 21012KT 15/M07 A2995 RMK A01 T01501065  RH  022%=      5-min Rain = 0
KGU1 132223Z 19011KT 15/M08 A2995 RMK A01 T01521076  RH  020%=      5-min Rain = 0
KGU1 132224Z 19012KT 16/M08 A2995 RMK A01 T01561079  RH  019%=      5-min Rain = 0
KGU1 132225Z 21010KT 16/M08 A2995 RMK A01 T01591084  RH  018%=      5-min Rain = 0
KGU1 132226Z 22010KT 16/M08 A2995 RMK A01 T01611081  RH  018%=      5-min Rain = 0
KGU1 132227Z 21007KT 16/M08 A2995 RMK A01 T01611083  RH  018%=      5-min Rain = 0
KGU1 132228Z 20003KT 16/M09 A2995 RMK A01 T01641091  RH  016%=      5-min Rain = 0
KGU1 132229Z 16004KT 17/M09 A2995 RMK A01 T01671090  RH  016%=      5-min Rain = 0
KGU1 132230Z 17005KT 17/M09 A2995 RMK A01 T01701091  RH  016%=      5-min Rain = 0
KGU1 132231Z 18007KT 17/M09 A2995 RMK A01 T01711091  RH  016%=      5-min Rain = 0
KGU1 132232Z 16006KT 17/M09 A2995 RMK A01 T01711091  RH  016%=      5-min Rain = 0
KGU1 132233Z 16006KT 17/M09 A2995 RMK A01 T01731094  RH  015%=      5-min Rain = 0
KGU1 132234Z 18005KT 17/M10 A2995 RMK A01 T01731095  RH  015%=      5-min Rain = 0
KGU1 132235Z 20007KT 17/M09 A2995 RMK A01 T01731086  RH  016%=      5-min Rain = 0
KGU1 132236Z 19005KT 17/M09 A2995 RMK A01 T01711086  RH  016%=      5-min Rain = 0
KGU1 132237Z 18007KT 17/M09 A2995 RMK A01 T01721087  RH  016%=      5-min Rain = 0
KGU1 132238Z 16010KT 17/M09 A2995 RMK A01 T01721093  RH  015%=      5-min Rain = 0
KGU1 132239Z 18010KT 17/M10 A2995 RMK A01 T01721096  RH  015%=      5-min Rain = 0
KGU1 132240Z 20008KT 17/M09 A2995 RMK A01 T01721093  RH  015%=      5-min Rain = 0
KGU1 132241Z 18004KT 17/M09 A2995 RMK A01 T01731093  RH  015%=      5-min Rain = 0
KGU1 132242Z 17006KT 17/M09 A2995 RMK A01 T01741092  RH  015%=      5-min Rain = 0
KGU1 132243Z 19002KT 18/M09 A2995 RMK A01 T01751090  RH  015%=      5-min Rain = 0
KGU1 132244Z 00004KT 18/M09 A2995 RMK A01 T01751091  RH  015%=      5-min Rain = 0
KGU1 132245Z 01002KT 18/M10 A2995 RMK A01 T01761096  RH  015%=      5-min Rain = 0
KGU1 132246Z 05002KT 18/M09 A2995 RMK A01 T01781092  RH  015%=      5-min Rain = 0
KGU1 132247Z 10003KT 18/M10 A2995 RMK A01 T01791095  RH  014%=      5-min Rain = 0
KGU1 132248Z 14003KT 18/M09 A2995 RMK A01 T01791094  RH  015%=      5-min Rain = 0
KGU1 132249Z 27006KT 18/M09 A2995 RMK A01 T01791090  RH  015%=      5-min Rain = 0
KGU1 132250Z 24004KT 18/M09 A2995 RMK A01 T01801094  RH  014%=      5-min Rain = 0
KGU1 132251Z 26011KT 18/M09 A2995 RMK A01 T01791089  RH  015%=      5-min Rain = 0
KGU1 132252Z 27011G16KT 18/M09 A2995 RMK A01 T01761086  RH  016%=      5-min Rain = 0
KGU1 132253Z 26012KT 17/M09 A2995 RMK A01 T01741086  RH  016%=      5-min Rain = 0
KGU1 132254Z 28015KT 17/M08 A2995 RMK A01 T01721084  RH  017%=      5-min Rain = 0
KGU1 132255Z 28011KT 17/M08 A2995 RMK A01 T01701083  RH  017%=      5-min Rain = 0
KGU1 132256Z 27012KT 17/M08 A2995 RMK A01 T01691081  RH  017%=      5-min Rain = 0
KGU1 132257Z 26010KT 17/M08 A2995 RMK A01 T01691084  RH  017%=      5-min Rain = 0
KGU1 132258Z 25014KT 17/M09 A2995 RMK A01 T01681086  RH  017%=      5-min Rain = 0
KGU1 132259Z 24012KT 17/M08 A2995 RMK A01 T01671084  RH  017%=      5-min Rain = 0
KGU1 132300Z 24011KT 17/M08 A2995 RMK A01 T01661083  RH  017%=      5-min Rain = 0
KGU1 132301Z 24009KT 17/M08 A2995 RMK A01 T01651082  RH  018%=      5-min Rain = 0
KGU1 132302Z 26011KT 17/M08 A2995 RMK A01 T01651083  RH  017%=      5-min Rain = 0
KGU1 132303Z 23007KT 17/M08 A2995 RMK A01 T01661082  RH  018%=      5-min Rain = 0
KGU1 132304Z 24006KT 17/M08 A2995 RMK A01 T01661082  RH  017%=      5-min Rain = 0
KGU1 132305Z 30005KT 17/M08 A2995 RMK A01 T01661080  RH  018%=      5-min Rain = 0
KGU1 132306Z 24002KT 17/M08 A2996 RMK A01 T01661084  RH  017%=      5-min Rain = 0
KGU1 132307Z 22005KT 17/M09 A2996 RMK A01 T01671085  RH  017%=      5-min Rain = 0
KGU1 132308Z 23004KT 17/M08 A2996 RMK A01 T01661080  RH  018%=      5-min Rain = 0
KGU1 132309Z 24002KT 17/M08 A2996 RMK A01 T01651079  RH  018%=      5-min Rain = 0
KGU1 132310Z 06003KT 16/M08 A2996 RMK A01 T01641079  RH  018%=      5-min Rain = 0
KGU1 132311Z 11003KT 16/M08 A2996 RMK A01 T01631078  RH  018%=      5-min Rain = 0
KGU1 132312Z 13003KT 16/M08 A2996 RMK A01 T01621080  RH  018%=      5-min Rain = 0
KGU1 132313Z 02006KT 16/M08 A2996 RMK A01 T01611077  RH  019%=      5-min Rain = 0
KGU1 132314Z 32008G13KT 16/M08 A2996 RMK A01 T01591077  RH  019%=      5-min Rain = 0
KGU1 132315Z 33014G19KT 16/M08 A2996 RMK A01 T01571078  RH  019%=      5-min Rain = 0
KGU1 132316Z 33012G17KT 16/M08 A2996 RMK A01 T01551079  RH  019%=      5-min Rain = 0
KGU1 132317Z 33012KT 16/M08 A2996 RMK A01 T01561081  RH  019%=      5-min Rain = 0
KGU1 132318Z 34010KT 16/M08 A2996 RMK A01 T01551076  RH  020%=      5-min Rain = 0
KGU1 132319Z 34012KT 15/M08 A2996 RMK A01 T01531078  RH  020%=      5-min Rain = 0
KGU1 132320Z 00010KT 15/M08 A2996 RMK A01 T01541075  RH  020%=      5-min Rain = 0
KGU1 132321Z 33009KT 15/M07 A2996 RMK A01 T01511074  RH  021%=      5-min Rain = 0
KGU1 132322Z 33009KT 15/M08 A2996 RMK A01 T01511078  RH  020%=      5-min Rain = 0
KGU1 132323Z 34010G15KT 15/M08 A2997 RMK A01 T01531080  RH  019%=      5-min Rain = 0
KGU1 132324Z 33012G17KT 15/M08 A2997 RMK A01 T01531076  RH  020%=      5-min Rain = 0
KGU1 132325Z 35011KT 15/M08 A2997 RMK A01 T01511077  RH  020%=      5-min Rain = 0
KGU1 132326Z 34010KT 15/M08 A2997 RMK A01 T01531079  RH  019%=      5-min Rain = 0
KGU1 132327Z 34011KT 15/M08 A2997 RMK A01 T01511076  RH  020%=      5-min Rain = 0
KGU1 132328Z 35012G17KT 15/M08 A2997 RMK A01 T01481075  RH  021%=      5-min Rain = 0
KGU1 132329Z 34012KT 15/M08 A2997 RMK A01 T01461075  RH  021%=      5-min Rain = 0
KGU1 132330Z 00010KT 15/M08 A2997 RMK A01 T01481077  RH  020%=      5-min Rain = 0
KGU1 132331Z 34009KT 15/M08 A2997 RMK A01 T01481076  RH  021%=      5-min Rain = 0
KGU1 132332Z 34011KT 15/M08 A2997 RMK A01 T01471075  RH  021%=      5-min Rain = 0
KGU1 132333Z 35011KT 15/M08 A2997 RMK A01 T01471077  RH  021%=      5-min Rain = 0
KGU1 132334Z 31010KT 15/M08 A2997 RMK A01 T01471076  RH  021%=      5-min Rain = 0
KGU1 132335Z 31008KT 15/M08 A2997 RMK A01 T01461076  RH  021%=      5-min Rain = 0
KGU1 132336Z 34008KT 15/M08 A2997 RMK A01 T01461077  RH  021%=      5-min Rain = 0
KGU1 132337Z 32007KT 15/M08 A2997 RMK A01 T01481080  RH  020%=      5-min Rain = 0
KGU1 132338Z 35006KT 15/M08 A2997 RMK A01 T01491078  RH  020%=      5-min Rain = 0
KGU1 132339Z 31005KT 15/M08 A2997 RMK A01 T01501080  RH  020%=      5-min Rain = 0
KGU1 132340Z 27005KT 15/M08 A2997 RMK A01 T01491077  RH  020%=      5-min Rain = 0
KGU1 132341Z 29003KT 15/M08 A2997 RMK A01 T01471077  RH  021%=      5-min Rain = 0
KGU1 132342Z 29003KT 15/M08 A2997 RMK A01 T01461076  RH  021%=      5-min Rain = 0
KGU1 132343Z 28005KT 15/M08 A2997 RMK A01 T01451079  RH  021%=      5-min Rain = 0
KGU1 132344Z 28006KT 15/M08 A2997 RMK A01 T01451076  RH  021%=      5-min Rain = 0
KGU1 132345Z 28004KT 14/M07 A2997 RMK A01 T01441074  RH  021%=      5-min Rain = 0
KGU1 132346Z 26004KT 14/M07 A2997 RMK A01 T01421074  RH  022%=      5-min Rain = 0
KGU1 132347Z 25003KT 14/M08 A2997 RMK A01 T01411075  RH  022%=      5-min Rain = 0
KGU1 132348Z 28003KT 14/M08 A2997 RMK A01 T01411075  RH  022%=      5-min Rain = 0
KGU1 132349Z 29004KT 14/M08 A2997 RMK A01 T01401076  RH  022%=      5-min Rain = 0
KGU1 132350Z 32001KT 14/M08 A2998 RMK A01 T01411079  RH  021%=      5-min Rain = 0
KGU1 132351Z 33001KT 14/M08 A2998 RMK A01 T01421078  RH  021%=      5-min Rain = 0
KGU1 132352Z 31003KT 14/M08 A2998 RMK A01 T01421077  RH  021%=      5-min Rain = 0
KGU1 132353Z 31004KT 14/M08 A2998 RMK A01 T01421077  RH  021%=      5-min Rain = 0
KGU1 132354Z 30004KT 14/M08 A2998 RMK A01 T01411076  RH  021%=      5-min Rain = 0
KGU1 132355Z 26001KT 14/M07 A2998 RMK A01 T01391072  RH  022%=      5-min Rain = 0
KGU1 132356Z 30003KT 14/M07 A2998 RMK A01 T01381072  RH  023%=      5-min Rain = 0
KGU1 132357Z 29006KT 14/M07 A2998 RMK A01 T01371073  RH  023%=      5-min Rain = 0
KGU1 132358Z 33006KT 13/M07 A2998 RMK A01 T01341073  RH  023%=      5-min Rain = 0
KGU1 132359Z 34010KT 13/M08 A2998 RMK A01 T01341075  RH  023%=      5-min Rain = 0
KGU1 140000Z 34011KT 13/M07 A2998 RMK A01 T01331074  RH  023%=      5-min Rain = 0
KGU1 140001Z 34009KT 13/M07 A2998 RMK A01 T01331074  RH  023%=      5-min Rain = 0
KGU1 140002Z 33007KT 13/M07 A2998 RMK A01 T01321074  RH  023%=      5-min Rain = 0
KGU1 140003Z 31007KT 13/M08 A2998 RMK A01 T01321077  RH  022%=      5-min Rain = 0
KGU1 140004Z 31004KT 14/M08 A2998 RMK A01 T01351080  RH  022%=      5-min Rain = 0
KGU1 140005Z 32006KT 14/M08 A2998 RMK A01 T01361079  RH  022%=      5-min Rain = 0
KGU1 140006Z 31004KT 14/M08 A2998 RMK A01 T01381079  RH  021%=      5-min Rain = 0
KGU1 140007Z 30007G13KT 14/M08 A2998 RMK A01 T01381077  RH  022%=      5-min Rain = 0
KGU1 140008Z 29012KT 14/M07 A2998 RMK A01 T01351073  RH  023%=      5-min Rain = 0
KGU1 140009Z 31009KT 13/M07 A2998 RMK A01 T01341073  RH  023%=      5-min Rain = 0
KGU1 140010Z 32009KT 13/M08 A2998 RMK A01 T01341075  RH  023%=      5-min Rain = 0
KGU1 140011Z 32014KT 13/M08 A2999 RMK A01 T01341075  RH  023%=      5-min Rain = 0
KGU1 140012Z 32009KT 13/M08 A2999 RMK A01 T01341076  RH  022%=      5-min Rain = 0
KGU1 140013Z 31007KT 14/M07 A2999 RMK A01 T01351073  RH  023%=      5-min Rain = 0
KGU1 140014Z 32008KT 13/M07 A2999 RMK A01 T01341074  RH  023%=      5-min Rain = 0
KGU1 140015Z 32008KT 13/M07 A2999 RMK A01 T01341074  RH  023%=      5-min Rain = 0
KGU1 140016Z 32009KT 13/M07 A2999 RMK A01 T01341074  RH  023%=      5-min Rain = 0
KGU1 140017Z 32007KT 14/M08 A2999 RMK A01 T01361078  RH  022%=      5-min Rain = 0
KGU1 140018Z 32008KT 14/M08 A2999 RMK A01 T01371077  RH  022%=      5-min Rain = 0
KGU1 140019Z 31008KT 14/M08 A2999 RMK A01 T01371076  RH  022%=      5-min Rain = 0
KGU1 140020Z 30008KT 14/M08 A2999 RMK A01 T01361075  RH  022%=      5-min Rain = 0
KGU1 140021Z 28008KT 14/M07 A2999 RMK A01 T01351074  RH  023%=      5-min Rain = 0
KGU1 140022Z 31008KT 13/M07 A2999 RMK A01 T01321071  RH  024%=      5-min Rain = 0
KGU1 140023Z 29010G15KT 13/M07 A2999 RMK A01 T01291070  RH  024%=      5-min Rain = 0
KGU1 140024Z 28012KT 13/M07 A2998 RMK A01 T01271069  RH  025%=      5-min Rain = 0
KGU1 140025Z 28011KT 13/M07 A2999 RMK A01 T01271070  RH  025%=      5-min Rain = 0
KGU1 140026Z 30010KT 13/M07 A2999 RMK A01 T01261071  RH  025%=      5-min Rain = 0
KGU1 140027Z 31007KT 13/M07 A2999 RMK A01 T01261071  RH  025%=      5-min Rain = 0
KGU1 140028Z 32007KT 13/M07 A2999 RMK A01 T01261071  RH  025%=      5-min Rain = 0
KGU1 140029Z 31008KT 13/M07 A2999 RMK A01 T01251071  RH  025%=      5-min Rain = 0
KGU1 140030Z 32010KT 13/M07 A2999 RMK A01 T01251071  RH  025%=      5-min Rain = 0
KGU1 140031Z 33012KT 13/M07 A2999 RMK A01 T01251072  RH  025%=      5-min Rain = 0
KGU1 140032Z 32009KT 13/M07 A2999 RMK A01 T01271073  RH  024%=      5-min Rain = 0
KGU1 140033Z 30006KT 13/M08 A2999 RMK A01 T01281075  RH  023%=      5-min Rain = 0
KGU1 140034Z 30007KT 13/M07 A2999 RMK A01 T01291073  RH  024%=      5-min Rain = 0
KGU1 140035Z 31008KT 13/M07 A2999 RMK A01 T01281074  RH  024%=      5-min Rain = 0
KGU1 140036Z 29006KT 13/M08 A2999 RMK A01 T01291075  RH  023%=      5-min Rain = 0
KGU1 140037Z 32006KT 13/M07 A2999 RMK A01 T01281073  RH  024%=      5-min Rain = 0
KGU1 140038Z 33012KT 13/M08 A2999 RMK A01 T01271076  RH  024%=      5-min Rain = 0
KGU1 140039Z 33013KT 13/M08 A2999 RMK A01 T01311077  RH  023%=      5-min Rain = 0
KGU1 140040Z 33010KT 13/M08 A2999 RMK A01 T01331079  RH  022%=      5-min Rain = 0
KGU1 140041Z 31006KT 13/M08 A2999 RMK A01 T01341079  RH  022%=      5-min Rain = 0
KGU1 140042Z 31006KT 13/M08 A2999 RMK A01 T01341078  RH  022%=      5-min Rain = 0
KGU1 140043Z 32009KT 13/M08 A2999 RMK A01 T01331078  RH  022%=      5-min Rain = 0
KGU1 140044Z 32009KT 13/M08 A30 RMK A01 T01321077  RH  023%=      5-min Rain = 0
KGU1 140045Z 34013KT 13/M08 A30 RMK A01 T01321077  RH  023%=      5-min Rain = 0
KGU1 140046Z 34013KT 13/M08 A30 RMK A01 T01331075  RH  023%=      5-min Rain = 0
KGU1 140047Z 33014G19KT 13/M08 A30 RMK A01 T01321075  RH  023%=      5-min Rain = 0
KGU1 140048Z 33014KT 13/M07 A30 RMK A01 T01321074  RH  023%=      5-min Rain = 0
KGU1 140049Z 34013KT 13/M07 A30 RMK A01 T01321074  RH  023%=      5-min Rain = 0
KGU1 140050Z 34015KT 13/M08 A30 RMK A01 T01331075  RH  023%=      5-min Rain = 0
KGU1 140051Z 33013KT 13/M07 A30 RMK A01 T01331074  RH  023%=      5-min Rain = 0
KGU1 140052Z 34013KT 13/M07 A30 RMK A01 T01311073  RH  024%=      5-min Rain = 0
KGU1 140053Z 34014KT 13/M07 A30 RMK A01 T01321073  RH  023%=      5-min Rain = 0
KGU1 140054Z 34012KT 13/M07 A30 RMK A01 T01341074  RH  023%=      5-min Rain = 0
KGU1 140055Z 35012KT 14/M07 A30 RMK A01 T01351074  RH  023%=      5-min Rain = 0
KGU1 140056Z 34011KT 14/M07 A30 RMK A01 T01351073  RH  023%=      5-min Rain = 0
KGU1 140057Z 34010KT 13/M07 A30 RMK A01 T01321071  RH  024%=      5-min Rain = 0
KGU1 140058Z 33008KT 13/M07 A30 RMK A01 T01311071  RH  024%=      5-min Rain = 0
KGU1 140059Z 33010KT 13/M07 A30 RMK A01 T01321071  RH  024%=      5-min Rain = 0
KGU1 140100Z 34009KT 13/M07 A30 RMK A01 T01341071  RH  024%=      5-min Rain = 0
KGU1 140101Z 34006KT 14/M07 A30 RMK A01 T01351073  RH  023%=      5-min Rain = 0
KGU1 140102Z 01009G14KT 14/M07 A30 RMK A01 T01371072  RH  023%=      5-min Rain = 0
KGU1 140103Z 35008KT 14/M07 A3001 RMK A01 T01351071  RH  023%=      5-min Rain = 0
KGU1 140104Z 34011G16KT 14/M07 A3001 RMK A01 T01351072  RH  023%=      5-min Rain = 0
KGU1 140105Z 32009KT 14/M07 A30 RMK A01 T01391073  RH  022%=      5-min Rain = 0
KGU1 140106Z 34006KT 14/M07 A30 RMK A01 T01401073  RH  022%=      5-min Rain = 0
KGU1 140107Z 33005KT 14/M07 A30 RMK A01 T01421073  RH  022%=      5-min Rain = 0
KGU1 140108Z 28004KT 14/M07 A30 RMK A01 T01421074  RH  022%=      5-min Rain = 0
KGU1 140109Z 24005KT 14/M08 A30 RMK A01 T01431075  RH  021%=      5-min Rain = 0
KGU1 140110Z 30007KT 14/M07 A3001 RMK A01 T01401073  RH  022%=      5-min Rain = 0
KGU1 140111Z 28007KT 14/M07 A3001 RMK A01 T01361073  RH  023%=      5-min Rain = 0
KGU1 140112Z 27004KT 14/M07 A3001 RMK A01 T01361073  RH  023%=      5-min Rain = 0
KGU1 140113Z 25004KT 14/M07 A3001 RMK A01 T01351074  RH  023%=      5-min Rain = 0
KGU1 140114Z 25005KT 13/M07 A3001 RMK A01 T01341074  RH  023%=      5-min Rain = 0
KGU1 140115Z 26005KT 13/M07 A3001 RMK A01 T01331074  RH  023%=      5-min Rain = 0
KGU1 140116Z 25005KT 13/M07 A3001 RMK A01 T01321073  RH  023%=      5-min Rain = 0
KGU1 140117Z 23005KT 13/M07 A3001 RMK A01 T01311072  RH  024%=      5-min Rain = 0
KGU1 140118Z 24005KT 13/M07 A3001 RMK A01 T01291071  RH  024%=      5-min Rain = 0
KGU1 140119Z 21005KT 13/M07 A3001 RMK A01 T01261067  RH  025%=      5-min Rain = 0
KGU1 140120Z 18007KT 12/M06 A3001 RMK A01 T01201061  RH  028%=      5-min Rain = 0
KGU1 140121Z 19009KT 11/M06 A3001 RMK A01 T01141059  RH  029%=      5-min Rain = 0
KGU1 140122Z 18010KT 11/M06 A3001 RMK A01 T01101057  RH  030%=      5-min Rain = 0
KGU1 140123Z 19011KT 11/M05 A3001 RMK A01 T01061054  RH  032%=      5-min Rain = 0
KGU1 140124Z 20010KT 10/M05 A3001 RMK A01 T01011053  RH  034%=      5-min Rain = 0
KGU1 140125Z 20008KT 10/M05 A3001 RMK A01 T00991052  RH  034%=      5-min Rain = 0
KGU1 140126Z 21010KT 10/M05 A3001 RMK A01 T00981051  RH  035%=      5-min Rain = 0
KGU1 140127Z 22010KT 10/M05 A3001 RMK A01 T00981052  RH  035%=      5-min Rain = 0
KGU1 140128Z 22008KT 10/M05 A3001 RMK A01 T00981052  RH  035%=      5-min Rain = 0
KGU1 140129Z 23011G16KT 10/M05 A3001 RMK A01 T00981051  RH  035%=      5-min Rain = 0
KGU1 140130Z 22011KT 10/M05 A3001 RMK A01 T00981051  RH  035%=      5-min Rain = 0
KGU1 140131Z 22011KT 10/M05 A3001 RMK A01 T00981050  RH  035%=      5-min Rain = 0
KGU1 140132Z 22010KT 10/M05 A3001 RMK A01 T00971049  RH  035%=      5-min Rain = 0
KGU1 140133Z 22010KT 10/M05 A3001 RMK A01 T00961049  RH  036%=      5-min Rain = 0
KGU1 140134Z 23007KT 10/M05 A3001 RMK A01 T00961050  RH  036%=      5-min Rain = 0
KGU1 140135Z 23006KT 10/M05 A3001 RMK A01 T00971054  RH  034%=      5-min Rain = 0
KGU1 140136Z 25009KT 10/M06 A3001 RMK A01 T01001056  RH  033%=      5-min Rain = 0
KGU1 140137Z 23009KT 11/M06 A3001 RMK A01 T01061061  RH  030%=      5-min Rain = 0
KGU1 140138Z 22013KT 11/M06 A3001 RMK A01 T01081056  RH  031%=      5-min Rain = 0
KGU1 140139Z 21014KT 10/M05 A3001 RMK A01 T01031051  RH  033%=      5-min Rain = 0
KGU1 140140Z 21013KT 10/M05 A3001 RMK A01 T01001049  RH  035%=      5-min Rain = 0
KGU1 140141Z 20011KT 10/M05 A3001 RMK A01 T00971049  RH  036%=      5-min Rain = 0
KGU1 140142Z 21009KT 10/M05 A3001 RMK A01 T00951049  RH  036%=      5-min Rain = 0
KGU1 140143Z 22009KT 10/M05 A3001 RMK A01 T00951051  RH  035%=      5-min Rain = 0
KGU1 140144Z 23006KT 10/M05 A3001 RMK A01 T00961051  RH  035%=      5-min Rain = 0
KGU1 140145Z 24005KT 10/M05 A3001 RMK A01 T00971052  RH  035%=      5-min Rain = 0
KGU1 140146Z 21009G14KT 10/M05 A3001 RMK A01 T00991053  RH  034%=      5-min Rain = 0
KGU1 140147Z 20009KT 10/M05 A3001 RMK A01 T01001051  RH  034%=      5-min Rain = 0
KGU1 140148Z 21007KT 10/M05 A3001 RMK A01 T00981050  RH  035%=      5-min Rain = 0
KGU1 140149Z 21007KT 10/M05 A3001 RMK A01 T00961051  RH  035%=      5-min Rain = 0
KGU1 140150Z 22005KT 10/M05 A3001 RMK A01 T00971054  RH  034%=      5-min Rain = 0
KGU1 140151Z 22006KT 10/M06 A3001 RMK A01 T00981055  RH  034%=      5-min Rain = 0
KGU1 140152Z 26007KT 10/M06 A3001 RMK A01 T01021063  RH  031%=      5-min Rain = 0
KGU1 140153Z 23006KT 11/M07 A3001 RMK A01 T01101066  RH  029%=      5-min Rain = 0
KGU1 140154Z 24005KT 11/M06 A3001 RMK A01 T01121060  RH  030%=      5-min Rain = 0
KGU1 140155Z 24006KT 11/M06 A3001 RMK A01 T01101060  RH  030%=      5-min Rain = 0
KGU1 140156Z 22005KT 11/M06 A3001 RMK A01 T01101062  RH  029%=      5-min Rain = 0
KGU1 140157Z 21008G13KT 11/M06 A3001 RMK A01 T01081055  RH  031%=      5-min Rain = 0
KGU1 140158Z 20009KT 10/M05 A3001 RMK A01 T01041054  RH  033%=      5-min Rain = 0
KGU1 140159Z 20012KT 10/M05 A3001 RMK A01 T01011050  RH  034%=      5-min Rain = 0
KGU1 140200Z 20013KT 10/M05 A3001 RMK A01 T00971047  RH  036%=      5-min Rain = 0
KGU1 140201Z 21014KT 10/M05 A3001 RMK A01 T00951047  RH  037%=      5-min Rain = 0
KGU1 140202Z 21012KT 09/M05 A3002 RMK A01 T00931046  RH  037%=      5-min Rain = 0
KGU1 140203Z 21012KT 09/M05 A3002 RMK A01 T00921046  RH  038%=      5-min Rain = 0
KGU1 140204Z 21014KT 09/M05 A3001 RMK A01 T00911045  RH  038%=      5-min Rain = 0
KGU1 140205Z 21014KT 09/M05 A3002 RMK A01 T00911046  RH  038%=      5-min Rain = 0
KGU1 140206Z 21014KT 09/M05 A3002 RMK A01 T00921046  RH  038%=      5-min Rain = 0
KGU1 140207Z 21013KT 09/M05 A3002 RMK A01 T00911045  RH  038%=      5-min Rain = 0
KGU1 140208Z 21013KT 09/M05 A3002 RMK A01 T00911045  RH  038%=      5-min Rain = 0
KGU1 140209Z 21013KT 09/M05 A3002 RMK A01 T00911045  RH  038%=      5-min Rain = 0
KGU1 140210Z 21013KT 09/M05 A3002 RMK A01 T00911045  RH  038%=      5-min Rain = 0
KGU1 140211Z 21012KT 09/M04 A3002 RMK A01 T00911044  RH  038%=      5-min Rain = 0
KGU1 140212Z 20008KT 09/M04 A3003 RMK A01 T00901044  RH  039%=      5-min Rain = 0
KGU1 140213Z 21011KT 09/M05 A3003 RMK A01 T00901045  RH  038%=      5-min Rain = 0
KGU1 140214Z 22013G18KT 09/M04 A3002 RMK A01 T00901044  RH  039%=      5-min Rain = 0
KGU1 140215Z 21010KT 09/M04 A3003 RMK A01 T00901043  RH  039%=      5-min Rain = 0
KGU1 140216Z 21012KT 09/M04 A3003 RMK A01 T00891044  RH  039%=      5-min Rain = 0
KGU1 140217Z 21012KT 09/M04 A3003 RMK A01 T00891044  RH  039%=      5-min Rain = 0
KGU1 140218Z 21012KT 09/M04 A3003 RMK A01 T00881042  RH  040%=      5-min Rain = 0
KGU1 140219Z 21012KT 09/M04 A3003 RMK A01 T00871042  RH  040%=      5-min Rain = 0
KGU1 140220Z 20010KT 09/M04 A3003 RMK A01 T00861042  RH  040%=      5-min Rain = 0
KGU1 140221Z 21013KT 09/M04 A3003 RMK A01 T00861042  RH  040%=      5-min Rain = 0
KGU1 140222Z 21011KT 09/M04 A3003 RMK A01 T00861042  RH  040%=      5-min Rain = 0
KGU1 140223Z 21012KT 09/M04 A3003 RMK A01 T00861041  RH  041%=      5-min Rain = 0
KGU1 140224Z 21011KT 09/M04 A3003 RMK A01 T00851041  RH  041%=      5-min Rain = 0
KGU1 140225Z 21010KT 09/M04 A3003 RMK A01 T00851040  RH  041%=      5-min Rain = 0
KGU1 140226Z 21011KT 08/M04 A3003 RMK A01 T00841041  RH  041%=      5-min Rain = 0
KGU1 140227Z 21012KT 09/M04 A3003 RMK A01 T00851041  RH  041%=      5-min Rain = 0
KGU1 140228Z 21013KT 09/M04 A3003 RMK A01 T00861042  RH  041%=      5-min Rain = 0
KGU1 140229Z 21011KT 09/M04 A3003 RMK A01 T00871042  RH  040%=      5-min Rain = 0
KGU1 140230Z 21015KT 09/M04 A3003 RMK A01 T00871041  RH  040%=      5-min Rain = 0
KGU1 140231Z 21015KT 09/M04 A3003 RMK A01 T00861040  RH  041%=      5-min Rain = 0
KGU1 140232Z 21016KT 09/M04 A3003 RMK A01 T00861040  RH  041%=      5-min Rain = 0
KGU1 140233Z 21014KT 09/M04 A3003 RMK A01 T00861040  RH  041%=      5-min Rain = 0
KGU1 140234Z 22014KT 09/M04 A3003 RMK A01 T00861040  RH  041%=      5-min Rain = 0
KGU1 140235Z 21014KT 09/M04 A3003 RMK A01 T00851039  RH  041%=      5-min Rain = 0
KGU1 140236Z 21016KT 09/M04 A3003 RMK A01 T00851038  RH  042%=      5-min Rain = 0
KGU1 140237Z 21015KT 08/M04 A3003 RMK A01 T00841039  RH  042%=      5-min Rain = 0
KGU1 140238Z 21013KT 08/M04 A3003 RMK A01 T00841038  RH  042%=      5-min Rain = 0
KGU1 140239Z 21014KT 08/M04 A3003 RMK A01 T00841039  RH  042%=      5-min Rain = 0
KGU1 140240Z 21012KT 08/M04 A3004 RMK A01 T00841038  RH  042%=      5-min Rain = 0
KGU1 140241Z 20014KT 08/M04 A3003 RMK A01 T00831038  RH  042%=      5-min Rain = 0
KGU1 140242Z 21014KT 08/M04 A3004 RMK A01 T00841038  RH  042%=      5-min Rain = 0
KGU1 140243Z 21010KT 08/M04 A3004 RMK A01 T00831039  RH  042%=      5-min Rain = 0
KGU1 140244Z 21012KT 08/M04 A3004 RMK A01 T00831038  RH  042%=      5-min Rain = 0
KGU1 140245Z 21012KT 08/M04 A3004 RMK A01 T00831038  RH  043%=      5-min Rain = 0
KGU1 140246Z 21012KT 08/M04 A3004 RMK A01 T00821038  RH  043%=      5-min Rain = 0
KGU1 140247Z 21011KT 08/M04 A3004 RMK A01 T00821037  RH  043%=      5-min Rain = 0
KGU1 140248Z 22012KT 08/M04 A3004 RMK A01 T00821038  RH  043%=      5-min Rain = 0
KGU1 140249Z 21012KT 08/M04 A3004 RMK A01 T00821039  RH  042%=      5-min Rain = 0
KGU1 140250Z 21011KT 08/M04 A3004 RMK A01 T00831040  RH  042%=      5-min Rain = 0
KGU1 140251Z 22010KT 09/M04 A3004 RMK A01 T00851040  RH  041%=      5-min Rain = 0
KGU1 140252Z 23010KT 08/M04 A3004 RMK A01 T00841038  RH  042%=      5-min Rain = 0
KGU1 140253Z 23007KT 08/M04 A3004 RMK A01 T00831039  RH  042%=      5-min Rain = 0
KGU1 140254Z 22009KT 08/M04 A3004 RMK A01 T00831040  RH  042%=      5-min Rain = 0
KGU1 140255Z 22010KT 09/M04 A3004 RMK A01 T00851041  RH  041%=      5-min Rain = 0
KGU1 140256Z 22012KT 09/M04 A3004 RMK A01 T00861042  RH  040%=      5-min Rain = 0
KGU1 140257Z 22010KT 09/M04 A3004 RMK A01 T00871042  RH  040%=      5-min Rain = 0
KGU1 140258Z 22009KT 09/M05 A3004 RMK A01 T00891045  RH  039%=      5-min Rain = 0
KGU1 140259Z 23009KT 09/M05 A3004 RMK A01 T00921046  RH  038%=      5-min Rain = 0
KGU1 140300Z 23008KT 09/M05 A3005 RMK A01 T00921046  RH  038%=      5-min Rain = 0
KGU1 140301Z 22007KT 09/M05 A3005 RMK A01 T00921046  RH  037%=      5-min Rain = 0
KGU1 140302Z 24006KT 09/M05 A3005 RMK A01 T00921047  RH  037%=      5-min Rain = 0
KGU1 140303Z 26005KT 09/M05 A3005 RMK A01 T00911048  RH  037%=      5-min Rain = 0
KGU1 140304Z 24005KT 09/M05 A3005 RMK A01 T00911049  RH  037%=      5-min Rain = 0
KGU1 140305Z 24005KT 09/M05 A3005 RMK A01 T00911050  RH  037%=      5-min Rain = 0
KGU1 140306Z 26005KT 09/M05 A3005 RMK A01 T00921051  RH  036%=      5-min Rain = 0
KGU1 140307Z 23004KT 09/M05 A3005 RMK A01 T00931052  RH  036%=      5-min Rain = 0
KGU1 140308Z 25005KT 09/M05 A3005 RMK A01 T00941052  RH  035%=      5-min Rain = 0
KGU1 140309Z 24005KT 10/M05 A3005 RMK A01 T00951052  RH  035%=      5-min Rain = 0
KGU1 140310Z 24005KT 10/M05 A3005 RMK A01 T00951052  RH  035%=      5-min Rain = 0
KGU1 140311Z 22004KT 10/M05 A3005 RMK A01 T00951053  RH  035%=      5-min Rain = 0
KGU1 140312Z 24004KT 09/M05 A3005 RMK A01 T00941053  RH  035%=      5-min Rain = 0
KGU1 140313Z 25006KT 10/M05 A3005 RMK A01 T00951054  RH  035%=      5-min Rain = 0
KGU1 140314Z 27006KT 10/M06 A3005 RMK A01 T00971055  RH  034%=      5-min Rain = 0
KGU1 140315Z 26005KT 10/M06 A3005 RMK A01 T00981056  RH  033%=      5-min Rain = 0
KGU1 140316Z 25005KT 10/M06 A3005 RMK A01 T00991055  RH  033%=      5-min Rain = 0
KGU1 140317Z 21003KT 10/M06 A3005 RMK A01 T00981055  RH  034%=      5-min Rain = 0
KGU1 140318Z 21003KT 10/M05 A3006 RMK A01 T00971053  RH  034%=      5-min Rain = 0
KGU1 140319Z 21003KT 10/M05 A3006 RMK A01 T00951053  RH  035%=      5-min Rain = 0
KGU1 140320Z 20005KT 09/M05 A3006 RMK A01 T00941053  RH  035%=      5-min Rain = 0
KGU1 140321Z 21008KT 10/M05 A3006 RMK A01 T00961051  RH  035%=      5-min Rain = 0
KGU1 140322Z 21009KT 10/M05 A3006 RMK A01 T00951047  RH  036%=      5-min Rain = 0
KGU1 140323Z 21009KT 09/M04 A3006 RMK A01 T00921042  RH  039%=      5-min Rain = 0
KGU1 140324Z 21009KT 09/M04 A3006 RMK A01 T00871038  RH  041%=      5-min Rain = 0
KGU1 140325Z 21010KT 09/M04 A3006 RMK A01 T00851037  RH  042%=      5-min Rain = 0
KGU1 140326Z 21010KT 08/M04 A3006 RMK A01 T00841035  RH  043%=      5-min Rain = 0
KGU1 140327Z 21009KT 08/M04 A3006 RMK A01 T00831036  RH  043%=      5-min Rain = 0
KGU1 140328Z 22009KT 08/M04 A3006 RMK A01 T00841036  RH  043%=      5-min Rain = 0
KGU1 140329Z 22009KT 08/M04 A3006 RMK A01 T00841035  RH  043%=      5-min Rain = 0
KGU1 140330Z 21009KT 08/M04 A3006 RMK A01 T00841035  RH  043%=      5-min Rain = 0
KGU1 140331Z 21008KT 08/M03 A3006 RMK A01 T00841034  RH  043%=      5-min Rain = 0
KGU1 140332Z 21010KT 08/M03 A3006 RMK A01 T00841033  RH  044%=      5-min Rain = 0
KGU1 140333Z 21010KT 08/M03 A3006 RMK A01 T00831032  RH  044%=      5-min Rain = 0
KGU1 140334Z 22008KT 08/M03 A3006 RMK A01 T00821032  RH  045%=      5-min Rain = 0
KGU1 140335Z 22008KT 08/M03 A3006 RMK A01 T00811032  RH  045%=      5-min Rain = 0
KGU1 140336Z 25006KT 08/M03 A3006 RMK A01 T00801033  RH  045%=      5-min Rain = 0
KGU1 140337Z 26004KT 08/M04 A3006 RMK A01 T00811035  RH  044%=      5-min Rain = 0
KGU1 140338Z 28004KT 08/M04 A3006 RMK A01 T00811040  RH  042%=      5-min Rain = 0
KGU1 140339Z 29005KT 08/M04 A3006 RMK A01 T00801043  RH  041%=      5-min Rain = 0
KGU1 140340Z 28004KT 08/M04 A3007 RMK A01 T00771043  RH  042%=      5-min Rain = 0
KGU1 140341Z 30005KT 08/M04 A3007 RMK A01 T00751042  RH  044%=      5-min Rain = 0
KGU1 140342Z 29005KT 07/M04 A3007 RMK A01 T00721040  RH  045%=      5-min Rain = 0
KGU1 140343Z 30006KT 07/M04 A3007 RMK A01 T00691038  RH  047%=      5-min Rain = 0
KGU1 140344Z 29006KT 07/M04 A3007 RMK A01 T00671037  RH  048%=      5-min Rain = 0
KGU1 140345Z 28007KT 07/M04 A3007 RMK A01 T00661036  RH  048%=      5-min Rain = 0
KGU1 140346Z 27006KT 07/M04 A3007 RMK A01 T00661037  RH  048%=      5-min Rain = 0
KGU1 140347Z 25005KT 07/M04 A3007 RMK A01 T00671037  RH  048%=      5-min Rain = 0
KGU1 140348Z 23004KT 07/M04 A3007 RMK A01 T00701038  RH  047%=      5-min Rain = 0
KGU1 140349Z 22002KT 07/M04 A3007 RMK A01 T00721038  RH  046%=      5-min Rain = 0
KGU1 140350Z 23004KT 07/M04 A3007 RMK A01 T00741039  RH  045%=      5-min Rain = 0
KGU1 140351Z 21006KT 07/M04 A3007 RMK A01 T00741039  RH  045%=      5-min Rain = 0
KGU1 140352Z 22006KT 08/M04 A3007 RMK A01 T00751037  RH  045%=      5-min Rain = 0
KGU1 140353Z 23006KT 08/M04 A3007 RMK A01 T00761037  RH  045%=      5-min Rain = 0
KGU1 140354Z 23005KT 08/M04 A3007 RMK A01 T00781037  RH  044%=      5-min Rain = 0
KGU1 140355Z 25004KT 08/M04 A3007 RMK A01 T00791039  RH  043%=      5-min Rain = 0
KGU1 140356Z 26003KT 08/M04 A3007 RMK A01 T00811042  RH  042%=      5-min Rain = 0
KGU1 140357Z 26004KT 08/M04 A3007 RMK A01 T00831043  RH  041%=      5-min Rain = 0
KGU1 140358Z 26005KT 08/M04 A3007 RMK A01 T00831043  RH  041%=      5-min Rain = 0
KGU1 140359Z 27005KT 08/M05 A3007 RMK A01 T00841045  RH  040%=      5-min Rain = 0
KGU1 140400Z 26004KT 09/M05 A3007 RMK A01 T00851045  RH  040%=      5-min Rain = 0
KGU1 140401Z 27004KT 09/M05 A3007 RMK A01 T00861048  RH  039%=      5-min Rain = 0
KGU1 140402Z 29002KT 09/M05 A3008 RMK A01 T00891050  RH  037%=      5-min Rain = 0
KGU1 140403Z 26002KT 09/M05 A3008 RMK A01 T00921052  RH  036%=      5-min Rain = 0
KGU1 140404Z 24002KT 09/M05 A3008 RMK A01 T00941050  RH  036%=      5-min Rain = 0
KGU1 140405Z 24000KT 09/M05 A3008 RMK A01 T00911051  RH  036%=      5-min Rain = 0
KGU1 140406Z 19000KT 09/M05 A3008 RMK A01 T00941053  RH  035%=      5-min Rain = 0
KGU1 140407Z 25001KT 10/M05 A3008 RMK A01 T00971053  RH  034%=      5-min Rain = 0
KGU1 140408Z 22000KT 10/M06 A3008 RMK A01 T01021057  RH  032%=      5-min Rain = 0
KGU1 140409Z 22000KT 11/M06 A3008 RMK A01 T01051056  RH  032%=      5-min Rain = 0
KGU1 140410Z 23002KT 11/M06 A3008 RMK A01 T01051055  RH  032%=      5-min Rain = 0
KGU1 140411Z 21003KT 10/M06 A3008 RMK A01 T01031055  RH  033%=      5-min Rain = 0
KGU1 140412Z 21004KT 10/M05 A3008 RMK A01 T01021053  RH  033%=      5-min Rain = 0
KGU1 140413Z 21005KT 10/M05 A3008 RMK A01 T00981051  RH  035%=      5-min Rain = 0
KGU1 140414Z 22006KT 09/M05 A3008 RMK A01 T00941051  RH  036%=      5-min Rain = 0
KGU1 140415Z 22005KT 09/M05 A3008 RMK A01 T00921051  RH  036%=      5-min Rain = 0
KGU1 140416Z 21005KT 09/M05 A3008 RMK A01 T00911050  RH  037%=      5-min Rain = 0
KGU1 140417Z 22005KT 09/M05 A3008 RMK A01 T00911050  RH  037%=      5-min Rain = 0
KGU1 140418Z 21006KT 09/M05 A3008 RMK A01 T00911050  RH  036%=      5-min Rain = 0
KGU1 140419Z 21006KT 09/M05 A3008 RMK A01 T00921051  RH  036%=      5-min Rain = 0
KGU1 140420Z 21006KT 09/M05 A3008 RMK A01 T00941050  RH  036%=      5-min Rain = 0
KGU1 140421Z 22006KT 10/M05 A3008 RMK A01 T00951048  RH  036%=      5-min Rain = 0
KGU1 140422Z 21006KT 09/M05 A3008 RMK A01 T00941047  RH  037%=      5-min Rain = 0
KGU1 140423Z 21007KT 09/M05 A3008 RMK A01 T00921047  RH  037%=      5-min Rain = 0
KGU1 140424Z 21007KT 09/M05 A3008 RMK A01 T00921046  RH  037%=      5-min Rain = 0
KGU1 140425Z 20007KT 09/M05 A3008 RMK A01 T00911045  RH  038%=      5-min Rain = 0
KGU1 140426Z 20006KT 09/M04 A3008 RMK A01 T00891043  RH  039%=      5-min Rain = 0
KGU1 140427Z 20006KT 09/M04 A3008 RMK A01 T00881044  RH  039%=      5-min Rain = 0
KGU1 140428Z 20006KT 09/M04 A3008 RMK A01 T00871044  RH  039%=      5-min Rain = 0
KGU1 140429Z 21004KT 09/M05 A3008 RMK A01 T00891046  RH  038%=      5-min Rain = 0
KGU1 140430Z 20002KT 09/M05 A3009 RMK A01 T00891048  RH  038%=      5-min Rain = 0
KGU1 140431Z 20002KT 09/M05 A3009 RMK A01 T00921050  RH  036%=      5-min Rain = 0
KGU1 140432Z 20002KT 09/M05 A3009 RMK A01 T00931052  RH  036%=      5-min Rain = 0
KGU1 140433Z 22002KT 10/M05 A3009 RMK A01 T00951053  RH  035%=      5-min Rain = 0
KGU1 140434Z 23003KT 10/M06 A3009 RMK A01 T00961055  RH  034%=      5-min Rain = 0
KGU1 140435Z 22002KT 10/M06 A3009 RMK A01 T00971055  RH  034%=      5-min Rain = 0
KGU1 140436Z 23002KT 10/M06 A3009 RMK A01 T00971056  RH  034%=      5-min Rain = 0
KGU1 140437Z 29002KT 10/M06 A3009 RMK A01 T00971056  RH  034%=      5-min Rain = 0
KGU1 140438Z 35003KT 10/M06 A3009 RMK A01 T00991063  RH  031%=      5-min Rain = 0
KGU1 140439Z 29003KT 10/M06 A3009 RMK A01 T00991057  RH  033%=      5-min Rain = 0
KGU1 140440Z 30002KT 10/M06 A3009 RMK A01 T00971059  RH  033%=      5-min Rain = 0
KGU1 140441Z 32003KT 10/M06 A3009 RMK A01 T00961060  RH  033%=      5-min Rain = 0
KGU1 140442Z 33003KT 10/M06 A3009 RMK A01 T00991062  RH  032%=      5-min Rain = 0
KGU1 140443Z 33002KT 10/M07 A3009 RMK A01 T01011066  RH  030%=      5-min Rain = 0
KGU1 140444Z 34002KT 11/M07 A3009 RMK A01 T01071070  RH  028%=      5-min Rain = 0
KGU1 140445Z 35003KT 11/M07 A3009 RMK A01 T01101070  RH  028%=      5-min Rain = 0
KGU1 140446Z 35002KT 11/M07 A3009 RMK A01 T01101070  RH  028%=      5-min Rain = 0
KGU1 140447Z 00002KT 11/M07 A3009 RMK A01 T01101074  RH  027%=      5-min Rain = 0
KGU1 140448Z 01003KT 11/M08 A3009 RMK A01 T01121075  RH  026%=      5-min Rain = 0
KGU1 140449Z 02002KT 11/M08 A3009 RMK A01 T01131075  RH  026%=      5-min Rain = 0
KGU1 140450Z 04001KT 11/M08 A3009 RMK A01 T01131075  RH  026%=      5-min Rain = 0
KGU1 140451Z 02002KT 11/M08 A3009 RMK A01 T01131076  RH  026%=      5-min Rain = 0
KGU1 140452Z 05002KT 11/M08 A3009 RMK A01 T01131076  RH  026%=      5-min Rain = 0
KGU1 140453Z 01002KT 11/M08 A3009 RMK A01 T01121076  RH  026%=      5-min Rain = 0
KGU1 140454Z 02004KT 11/M08 A3009 RMK A01 T01131077  RH  026%=      5-min Rain = 0
KGU1 140455Z 03003KT 11/M08 A3009 RMK A01 T01141077  RH  025%=      5-min Rain = 0
KGU1 140456Z 01002KT 11/M08 A3009 RMK A01 T01141077  RH  025%=      5-min Rain = 0
KGU1 140457Z 36002KT 11/M08 A3009 RMK A01 T01141077  RH  026%=      5-min Rain = 0
KGU1 140458Z 35002KT 11/M08 A3009 RMK A01 T01131077  RH  026%=      5-min Rain = 0
KGU1 140459Z 36003KT 11/M08 A3009 RMK A01 T01121077  RH  026%=      5-min Rain = 0
KGU1 140500Z 36005KT 11/M08 A3009 RMK A01 T01121078  RH  026%=      5-min Rain = 0
KGU1 140501Z 00005KT 11/M08 A3009 RMK A01 T01121078  RH  026%=      5-min Rain = 0
KGU1 140502Z 36005KT 11/M08 A3009 RMK A01 T01141078  RH  025%=      5-min Rain = 0
KGU1 140503Z 00005KT 12/M08 A3009 RMK A01 T01161078  RH  025%=      5-min Rain = 0
KGU1 140504Z 01005KT 12/M08 A3009 RMK A01 T01181077  RH  025%=      5-min Rain = 0
KGU1 140505Z 02005KT 12/M08 A3009 RMK A01 T01181077  RH  025%=      5-min Rain = 0
KGU1 140506Z 02005KT 12/M08 A3009 RMK A01 T01191077  RH  025%=      5-min Rain = 0
KGU1 140507Z 02005KT 12/M08 A3009 RMK A01 T01201077  RH  024%=      5-min Rain = 0
KGU1 140508Z 02004KT 12/M08 A3009 RMK A01 T01211076  RH  025%=      5-min Rain = 0
KGU1 140509Z 01005KT 12/M08 A3009 RMK A01 T01201075  RH  025%=      5-min Rain = 0
KGU1 140510Z 01005KT 12/M08 A301 RMK A01 T01201075  RH  025%=      5-min Rain = 0
KGU1 140511Z 01005KT 12/M08 A301 RMK A01 T01191075  RH  025%=      5-min Rain = 0
KGU1 140512Z 01007KT 12/M08 A301 RMK A01 T01181078  RH  025%=      5-min Rain = 0
KGU1 140513Z 02005KT 12/M08 A301 RMK A01 T01211079  RH  024%=      5-min Rain = 0
KGU1 140514Z 02006KT 12/M08 A301 RMK A01 T01211078  RH  024%=      5-min Rain = 0
KGU1 140515Z 01006KT 12/M08 A301 RMK A01 T01211079  RH  024%=      5-min Rain = 0
KGU1 140516Z 01004KT 12/M08 A301 RMK A01 T01211079  RH  024%=      5-min Rain = 0
KGU1 140517Z 01003KT 12/M08 A301 RMK A01 T01191077  RH  025%=      5-min Rain = 0
KGU1 140518Z 02004KT 12/M08 A301 RMK A01 T01181079  RH  024%=      5-min Rain = 0
KGU1 140519Z 02005KT 12/M08 A301 RMK A01 T01171080  RH  024%=      5-min Rain = 0
KGU1 140520Z 04006KT 12/M08 A301 RMK A01 T01201082  RH  023%=      5-min Rain = 0
KGU1 140521Z 03006KT 12/M08 A301 RMK A01 T01231082  RH  023%=      5-min Rain = 0
KGU1 140522Z 03006KT 12/M08 A301 RMK A01 T01241082  RH  023%=      5-min Rain = 0
KGU1 140523Z 02006KT 12/M08 A301 RMK A01 T01231082  RH  023%=      5-min Rain = 0
KGU1 140524Z 01005KT 12/M08 A301 RMK A01 T01221081  RH  023%=      5-min Rain = 0
KGU1 140525Z 02006KT 12/M08 A301 RMK A01 T01201080  RH  024%=      5-min Rain = 0
KGU1 140526Z 02005KT 12/M08 A301 RMK A01 T01191080  RH  024%=      5-min Rain = 0
KGU1 140527Z 03006KT 12/M08 A301 RMK A01 T01191081  RH  024%=      5-min Rain = 0
KGU1 140528Z 02005KT 12/M08 A301 RMK A01 T01191080  RH  024%=      5-min Rain = 0
KGU1 140529Z 03005KT 12/M08 A301 RMK A01 T01181080  RH  024%=      5-min Rain = 0
KGU1 140530Z 02006KT 12/M08 A301 RMK A01 T01171081  RH  024%=      5-min Rain = 0
KGU1 140531Z 03006KT 12/M08 A301 RMK A01 T01181082  RH  024%=      5-min Rain = 0
KGU1 140532Z 01006KT 12/M08 A301 RMK A01 T01201081  RH  024%=      5-min Rain = 0
KGU1 140533Z 01007KT 12/M08 A301 RMK A01 T01191080  RH  024%=      5-min Rain = 0
KGU1 140534Z 02007KT 12/M08 A301 RMK A01 T01191080  RH  024%=      5-min Rain = 0
KGU1 140535Z 04007KT 12/M08 A301 RMK A01 T01201081  RH  024%=      5-min Rain = 0
KGU1 140536Z 05006KT 12/M08 A301 RMK A01 T01221081  RH  023%=      5-min Rain = 0
KGU1 140537Z 04007KT 12/M08 A301 RMK A01 T01231081  RH  023%=      5-min Rain = 0
KGU1 140538Z 04005KT 12/M08 A301 RMK A01 T01241081  RH  023%=      5-min Rain = 0
KGU1 140539Z 04005KT 12/M08 A301 RMK A01 T01241080  RH  023%=      5-min Rain = 0
KGU1 140540Z 05004KT 12/M08 A301 RMK A01 T01241080  RH  023%=      5-min Rain = 0
KGU1 140541Z 05004KT 12/M08 A301 RMK A01 T01231080  RH  023%=      5-min Rain = 0
KGU1 140542Z 05003KT 12/M08 A301 RMK A01 T01221080  RH  024%=      5-min Rain = 0
KGU1 140543Z 04003KT 12/M08 A301 RMK A01 T01211080  RH  024%=      5-min Rain = 0
KGU1 140544Z 00004KT 12/M08 A301 RMK A01 T01201079  RH  024%=      5-min Rain = 0
KGU1 140545Z 35004KT 12/M08 A301 RMK A01 T01181078  RH  025%=      5-min Rain = 0
KGU1 140546Z 36005KT 12/M08 A301 RMK A01 T01151079  RH  025%=      5-min Rain = 0
KGU1 140547Z 36005KT 12/M08 A301 RMK A01 T01151079  RH  025%=      5-min Rain = 0
KGU1 140548Z 36005KT 11/M08 A301 RMK A01 T01141079  RH  025%=      5-min Rain = 0
KGU1 140549Z 35005KT 11/M08 A301 RMK A01 T01141080  RH  025%=      5-min Rain = 0
KGU1 140550Z 34005KT 12/M08 A301 RMK A01 T01151081  RH  025%=      5-min Rain = 0
KGU1 140551Z 00007KT 12/M08 A301 RMK A01 T01171082  RH  024%=      5-min Rain = 0
KGU1 140552Z 02007KT 12/M08 A301 RMK A01 T01231081  RH  023%=      5-min Rain = 0
KGU1 140553Z 01005KT 13/M08 A301 RMK A01 T01251081  RH  023%=      5-min Rain = 0
KGU1 140554Z 01004KT 13/M08 A3011 RMK A01 T01251081  RH  023%=      5-min Rain = 0
KGU1 140555Z 01004KT 12/M08 A3011 RMK A01 T01221080  RH  024%=      5-min Rain = 0
KGU1 140556Z 35003KT 12/M08 A3011 RMK A01 T01211079  RH  024%=      5-min Rain = 0
KGU1 140557Z 35004KT 12/M08 A3011 RMK A01 T01191080  RH  024%=      5-min Rain = 0
KGU1 140558Z 35004KT 12/M08 A3011 RMK A01 T01181080  RH  024%=      5-min Rain = 0
KGU1 140559Z 34003KT 12/M08 A3011 RMK A01 T01171079  RH  024%=      5-min Rain = 0

Page generated in 0.1412 seconds.